DAL40 YSSY-KLAX
Flight info
| Callsign | DAL40 |
|---|---|
| Flight time | 14h 20m |
| Altitude | 35000 |
| Route | TESAT B450 NOBAR B474 ISTEM DCT 22S163E 16S170E 11S175E/N0493F370 05S180W 02N175W 07N170W 11N165W/N0484F390 14N160W DCT FITES R578 FIZEL/N0475F410 DCT 2755N12800W DCT FOOTS R578 FICKY GOATZ2 |
| Aircraft | A359/H-SDE2E3GHIJ1J3J4J5LM1ORWXY/LB1D1 |
Departure
| Time | 2026-04-22 11:24 |
|---|---|
| Airport | Sydney Kingsford Smith International Airport (YSSY) |
Arrival
| Time | 2026-04-23 01:44 |
|---|---|
| Airport | Los Angeles International Airport (KLAX) |
| Time | Latitude | Longitude | Altitude | Speed | Heading |
|---|---|---|---|---|---|
| 2026-04-22 10:47 | -33.93888 | 151.16651 | 36 ft | 0 kts | 254° |
| 2026-04-22 11:10 | -33.93885 | 151.16663 | 34 ft | 4 kts | 254° |
| 2026-04-22 11:10 | -33.93877 | 151.16694 | 36 ft | 4 kts | 253° |
| 2026-04-22 11:10 | -33.93868 | 151.16725 | 32 ft | 4 kts | 242° |
| 2026-04-22 11:10 | -33.93854 | 151.16747 | 33 ft | 4 kts | 191° |
| 2026-04-22 11:11 | -33.93850 | 151.16749 | 34 ft | 4 kts | 164° |
| 2026-04-22 11:11 | -33.93876 | 151.16757 | 34 ft | 4 kts | 165° |
| 2026-04-22 11:11 | -33.93897 | 151.16764 | 36 ft | 4 kts | 164° |
| 2026-04-22 11:11 | -33.93923 | 151.16773 | 36 ft | 4 kts | 163° |
| 2026-04-22 11:12 | -33.93947 | 151.16782 | 36 ft | 2 kts | 164° |
| 2026-04-22 11:12 | -33.93949 | 151.16782 | 36 ft | 0 kts | 164° |
| 2026-04-22 11:17 | -33.93969 | 151.16789 | 36 ft | 6 kts | 164° |
| 2026-04-22 11:17 | -33.93977 | 151.16792 | 36 ft | 0 kts | 164° |
| 2026-04-22 11:18 | -33.94010 | 151.16803 | 36 ft | 11 kts | 164° |
| 2026-04-22 11:18 | -33.94050 | 151.16867 | 36 ft | 10 kts | 90° |
| 2026-04-22 11:18 | -33.94030 | 151.16973 | 36 ft | 15 kts | 74° |
| 2026-04-22 11:19 | -33.94001 | 151.17092 | 36 ft | 15 kts | 74° |
| 2026-04-22 11:19 | -33.93963 | 151.17201 | 35 ft | 14 kts | 39° |
| 2026-04-22 11:19 | -33.93874 | 151.17199 | 35 ft | 13 kts | 346° |
| 2026-04-22 11:19 | -33.93789 | 151.17176 | 35 ft | 13 kts | 348° |
| 2026-04-22 11:20 | -33.93704 | 151.17154 | 35 ft | 12 kts | 348° |
| 2026-04-22 11:20 | -33.93618 | 151.17133 | 35 ft | 13 kts | 348° |
| 2026-04-22 11:20 | -33.93512 | 151.17106 | 35 ft | 19 kts | 348° |
| 2026-04-22 11:20 | -33.93384 | 151.17073 | 36 ft | 19 kts | 345° |
| 2026-04-22 11:21 | -33.93281 | 151.16993 | 36 ft | 18 kts | 320° |
| 2026-04-22 11:21 | -33.93169 | 151.16941 | 36 ft | 17 kts | 346° |
| 2026-04-22 11:21 | -33.93054 | 151.16911 | 36 ft | 16 kts | 350° |
| 2026-04-22 11:21 | -33.93001 | 151.16922 | 36 ft | 6 kts | 40° |
| 2026-04-22 11:22 | -33.92979 | 151.16980 | 36 ft | 8 kts | 75° |
| 2026-04-22 11:22 | -33.92966 | 151.17050 | 37 ft | 10 kts | 78° |
| 2026-04-22 11:22 | -33.92959 | 151.17140 | 37 ft | 11 kts | 107° |
| 2026-04-22 11:22 | -33.93003 | 151.17175 | 36 ft | 11 kts | 163° |
| 2026-04-22 11:23 | -33.93272 | 151.17248 | 37 ft | 69 kts | 167° |
| 2026-04-22 11:23 | -33.93915 | 151.17415 | 33 ft | 121 kts | 167° |
| 2026-04-22 11:23 | -33.94889 | 151.17666 | 40 ft | 165 kts | 167° |
| 2026-04-22 11:23 | -33.96025 | 151.17973 | 465 ft | 166 kts | 167° |
| 2026-04-22 11:24 | -33.97147 | 151.18375 | 830 ft | 170 kts | 161° |
| 2026-04-22 11:24 | -33.98325 | 151.18321 | 1234 ft | 172 kts | 189° |
| 2026-04-22 11:24 | -33.99544 | 151.18030 | 1434 ft | 186 kts | 187° |
| 2026-04-22 11:24 | -34.00887 | 151.17790 | 1551 ft | 205 kts | 184° |
| 2026-04-22 11:25 | -34.02376 | 151.17636 | 1708 ft | 224 kts | 178° |
| 2026-04-22 11:25 | -34.03944 | 151.17924 | 1979 ft | 237 kts | 165° |
| 2026-04-22 11:25 | -34.05559 | 151.18448 | 2449 ft | 243 kts | 164° |
| 2026-04-22 11:25 | -34.07193 | 151.18993 | 2996 ft | 245 kts | 164° |
| 2026-04-22 11:26 | -34.08847 | 151.19547 | 3565 ft | 247 kts | 164° |
| 2026-04-22 11:26 | -34.10509 | 151.20107 | 4120 ft | 249 kts | 164° |
| 2026-04-22 11:26 | -34.12186 | 151.20677 | 4662 ft | 252 kts | 164° |
| 2026-04-22 11:26 | -34.13881 | 151.21243 | 4953 ft | 254 kts | 164° |
| 2026-04-22 11:27 | -34.15584 | 151.21809 | 5012 ft | 254 kts | 164° |
| 2026-04-22 11:27 | -34.17287 | 151.22376 | 5010 ft | 253 kts | 165° |
| 2026-04-22 11:27 | -34.18938 | 151.23022 | 5013 ft | 253 kts | 156° |
| 2026-04-22 11:27 | -34.20422 | 151.24175 | 5227 ft | 257 kts | 137° |
| 2026-04-22 11:28 | -34.21451 | 151.25954 | 5700 ft | 262 kts | 114° |
| 2026-04-22 11:28 | -34.21724 | 151.28127 | 6324 ft | 266 kts | 87° |
| 2026-04-22 11:28 | -34.21115 | 151.30251 | 6803 ft | 275 kts | 58° |
| 2026-04-22 11:28 | -34.19676 | 151.31797 | 7255 ft | 284 kts | 28° |
| 2026-04-22 11:29 | -34.17738 | 151.32304 | 7720 ft | 291 kts | 358° |
| 2026-04-22 11:29 | -34.15788 | 151.31767 | 8218 ft | 294 kts | 339° |
| 2026-04-22 11:29 | -34.13876 | 151.30869 | 8656 ft | 297 kts | 350° |
| 2026-04-22 11:29 | -34.11835 | 151.30791 | 9129 ft | 294 kts | 13° |
| 2026-04-22 11:30 | -34.09970 | 151.31703 | 9631 ft | 288 kts | 37° |
| 2026-04-22 11:30 | -34.08411 | 151.33209 | 10172 ft | 287 kts | 47° |
| 2026-04-22 11:30 | -34.07012 | 151.34980 | 10407 ft | 297 kts | 53° |
| 2026-04-22 11:30 | -34.05665 | 151.36918 | 10600 ft | 309 kts | 54° |
| 2026-04-22 11:31 | -34.04277 | 151.38985 | 10804 ft | 322 kts | 54° |
| 2026-04-22 11:31 | -34.02829 | 151.41110 | 10985 ft | 334 kts | 53° |
| 2026-04-22 11:31 | -34.01306 | 151.43285 | 11198 ft | 345 kts | 53° |
| 2026-04-22 11:31 | -33.99708 | 151.45509 | 11384 ft | 356 kts | 52° |
| 2026-04-22 11:32 | -33.98076 | 151.47741 | 11695 ft | 362 kts | 52° |
| 2026-04-22 11:32 | -33.96394 | 151.50018 | 12127 ft | 365 kts | 51° |
| 2026-04-22 11:32 | -33.94694 | 151.52312 | 12495 ft | 369 kts | 51° |
| 2026-04-22 11:32 | -33.92980 | 151.54624 | 12925 ft | 371 kts | 52° |
| 2026-04-22 11:33 | -33.91257 | 151.56950 | 13371 ft | 373 kts | 52° |
| 2026-04-22 11:33 | -33.89529 | 151.59284 | 13805 ft | 374 kts | 52° |
| 2026-04-22 11:33 | -33.87791 | 151.61634 | 14211 ft | 376 kts | 52° |
| 2026-04-22 11:33 | -33.86048 | 151.63992 | 14601 ft | 378 kts | 52° |
| 2026-04-22 11:34 | -33.84324 | 151.66322 | 15039 ft | 378 kts | 52° |
| 2026-04-22 11:34 | -33.82575 | 151.68686 | 15419 ft | 380 kts | 52° |
| 2026-04-22 11:34 | -33.80812 | 151.71066 | 15797 ft | 382 kts | 52° |
| 2026-04-22 11:34 | -33.79005 | 151.73422 | 16170 ft | 386 kts | 49° |
| 2026-04-22 11:35 | -33.77055 | 151.75667 | 16494 ft | 390 kts | 47° |
| 2026-04-22 11:35 | -33.75048 | 151.77878 | 16878 ft | 392 kts | 46° |
| 2026-04-22 11:35 | -33.73011 | 151.80067 | 17290 ft | 394 kts | 46° |
| 2026-04-22 11:35 | -33.70980 | 151.82222 | 17662 ft | 396 kts | 46° |
| 2026-04-22 11:36 | -33.68910 | 151.84411 | 18042 ft | 397 kts | 46° |
| 2026-04-22 11:36 | -33.66831 | 151.86609 | 18417 ft | 399 kts | 46° |
| 2026-04-22 11:36 | -33.64742 | 151.88821 | 18774 ft | 401 kts | 46° |
| 2026-04-22 11:36 | -33.62650 | 151.91041 | 19085 ft | 403 kts | 46° |
| 2026-04-22 11:37 | -33.60540 | 151.93280 | 19388 ft | 406 kts | 46° |
| 2026-04-22 11:37 | -33.58416 | 151.95536 | 19626 ft | 410 kts | 46° |
| 2026-04-22 11:37 | -33.56277 | 151.97806 | 19950 ft | 412 kts | 46° |
| 2026-04-22 11:37 | -33.54125 | 152.00088 | 20272 ft | 414 kts | 46° |
| 2026-04-22 11:38 | -33.51990 | 152.02350 | 20571 ft | 416 kts | 46° |
| 2026-04-22 11:38 | -33.49817 | 152.04650 | 20883 ft | 418 kts | 46° |
| 2026-04-22 11:38 | -33.45434 | 152.09287 | 21492 ft | 423 kts | 46° |
| 2026-04-22 11:39 | -33.43221 | 152.11624 | 21794 ft | 425 kts | 46° |
| 2026-04-22 11:39 | -33.40996 | 152.13974 | 22069 ft | 429 kts | 46° |
| 2026-04-22 11:39 | -33.38778 | 152.16316 | 22277 ft | 433 kts | 46° |
| 2026-04-22 11:39 | -33.36517 | 152.18700 | 22601 ft | 434 kts | 46° |
| 2026-04-22 11:40 | -33.34246 | 152.21091 | 22925 ft | 436 kts | 46° |
| 2026-04-22 11:40 | -33.31963 | 152.23494 | 23232 ft | 438 kts | 46° |
| 2026-04-22 11:40 | -33.29670 | 152.25905 | 23527 ft | 441 kts | 46° |
| 2026-04-22 11:40 | -33.27363 | 152.28330 | 23826 ft | 443 kts | 46° |
| 2026-04-22 11:41 | -33.25044 | 152.30766 | 24076 ft | 445 kts | 46° |
| 2026-04-22 11:41 | -33.22711 | 152.33216 | 24301 ft | 448 kts | 46° |
| 2026-04-22 11:41 | -33.20359 | 152.35684 | 24448 ft | 452 kts | 46° |
| 2026-04-22 11:41 | -33.18020 | 152.38135 | 24677 ft | 455 kts | 46° |
| 2026-04-22 11:42 | -33.15639 | 152.40628 | 24901 ft | 457 kts | 46° |
| 2026-04-22 11:42 | -33.13241 | 152.43138 | 25110 ft | 460 kts | 46° |
| 2026-04-22 11:42 | -33.10827 | 152.45662 | 25321 ft | 463 kts | 46° |
| 2026-04-22 11:42 | -33.08396 | 152.48202 | 25536 ft | 465 kts | 46° |
| 2026-04-22 11:43 | -33.05957 | 152.50748 | 25754 ft | 468 kts | 45° |
| 2026-04-22 11:43 | -33.03499 | 152.53312 | 25988 ft | 471 kts | 45° |
| 2026-04-22 11:43 | -33.01025 | 152.55892 | 26186 ft | 474 kts | 45° |
| 2026-04-22 11:43 | -32.98535 | 152.58486 | 26402 ft | 477 kts | 45° |
| 2026-04-22 11:44 | -32.96061 | 152.61061 | 26620 ft | 480 kts | 45° |
| 2026-04-22 11:44 | -32.93541 | 152.63682 | 26838 ft | 483 kts | 45° |
| 2026-04-22 11:44 | -32.91003 | 152.66319 | 27054 ft | 485 kts | 45° |
| 2026-04-22 11:44 | -32.88451 | 152.68969 | 27272 ft | 488 kts | 45° |
| 2026-04-22 11:45 | -32.85885 | 152.71632 | 27493 ft | 491 kts | 45° |
| 2026-04-22 11:45 | -32.83307 | 152.74305 | 27722 ft | 493 kts | 45° |
| 2026-04-22 11:45 | -32.80710 | 152.76995 | 27920 ft | 496 kts | 45° |
| 2026-04-22 11:45 | -32.78100 | 152.79696 | 28131 ft | 499 kts | 45° |
| 2026-04-22 11:46 | -32.75511 | 152.82373 | 28337 ft | 502 kts | 45° |
| 2026-04-22 11:46 | -32.72876 | 152.85096 | 28645 ft | 502 kts | 45° |
| 2026-04-22 11:46 | -32.70240 | 152.87817 | 28927 ft | 503 kts | 45° |
| 2026-04-22 11:46 | -32.67593 | 152.90548 | 29098 ft | 506 kts | 45° |
| 2026-04-22 11:47 | -32.64928 | 152.93297 | 29260 ft | 510 kts | 44° |
| 2026-04-22 11:47 | -32.62232 | 152.96077 | 29267 ft | 516 kts | 44° |
| 2026-04-22 11:47 | -32.59519 | 152.98877 | 29470 ft | 518 kts | 44° |
| 2026-04-22 11:47 | -32.56799 | 153.01678 | 29674 ft | 519 kts | 44° |
| 2026-04-22 11:48 | -32.54094 | 153.04455 | 29850 ft | 522 kts | 44° |
| 2026-04-22 11:48 | -32.51350 | 153.07268 | 30042 ft | 524 kts | 44° |
| 2026-04-22 11:48 | -32.48585 | 153.10100 | 30210 ft | 526 kts | 44° |
| 2026-04-22 11:48 | -32.45815 | 153.12936 | 30352 ft | 528 kts | 43° |
| 2026-04-22 11:49 | -32.40225 | 153.18671 | 30632 ft | 533 kts | 43° |
| 2026-04-22 11:49 | -32.37413 | 153.21540 | 30788 ft | 534 kts | 43° |
| 2026-04-22 11:49 | -32.34592 | 153.24416 | 30928 ft | 536 kts | 43° |
| 2026-04-22 11:50 | -32.31768 | 153.27294 | 31075 ft | 537 kts | 43° |
| 2026-04-22 11:50 | -32.28933 | 153.30183 | 31213 ft | 539 kts | 43° |
| 2026-04-22 11:50 | -32.26128 | 153.33040 | 31343 ft | 541 kts | 43° |
| 2026-04-22 11:50 | -32.23263 | 153.35957 | 31347 ft | 545 kts | 43° |
| 2026-04-22 11:51 | -32.20386 | 153.38883 | 31453 ft | 547 kts | 43° |
| 2026-04-22 11:51 | -32.17501 | 153.41814 | 31631 ft | 547 kts | 42° |
| 2026-04-22 11:51 | -32.14616 | 153.44743 | 31895 ft | 546 kts | 42° |
| 2026-04-22 11:51 | -32.11743 | 153.47656 | 32155 ft | 544 kts | 42° |
| 2026-04-22 11:52 | -32.08870 | 153.50568 | 32314 ft | 545 kts | 42° |
| 2026-04-22 11:52 | -32.05996 | 153.53479 | 32441 ft | 546 kts | 41° |
| 2026-04-22 11:52 | -32.00256 | 153.59285 | 32660 ft | 548 kts | 41° |
| 2026-04-22 11:53 | -31.97359 | 153.62210 | 32864 ft | 548 kts | 41° |
| 2026-04-22 11:53 | -31.94467 | 153.65130 | 33042 ft | 547 kts | 41° |
| 2026-04-22 11:53 | -31.91579 | 153.68042 | 33215 ft | 547 kts | 41° |
| 2026-04-22 11:53 | -31.88683 | 153.70959 | 33377 ft | 547 kts | 41° |
| 2026-04-22 11:54 | -31.85790 | 153.73871 | 33520 ft | 547 kts | 41° |
| 2026-04-22 11:54 | -31.82896 | 153.76782 | 33675 ft | 548 kts | 41° |
| 2026-04-22 11:54 | -31.79994 | 153.79698 | 33776 ft | 550 kts | 40° |
| 2026-04-22 11:54 | -31.77083 | 153.82621 | 33947 ft | 549 kts | 40° |
| 2026-04-22 11:55 | -31.74220 | 153.85493 | 34118 ft | 549 kts | 40° |
| 2026-04-22 11:55 | -31.71318 | 153.88402 | 34274 ft | 549 kts | 40° |
| 2026-04-22 11:55 | -31.68409 | 153.91315 | 34415 ft | 549 kts | 40° |
| 2026-04-22 11:55 | -31.65509 | 153.94217 | 34546 ft | 548 kts | 40° |
| 2026-04-22 11:56 | -31.62611 | 153.97116 | 34712 ft | 547 kts | 40° |
| 2026-04-22 11:56 | -31.59717 | 154.00008 | 34875 ft | 546 kts | 40° |
| 2026-04-22 11:56 | -31.56829 | 154.02892 | 35004 ft | 545 kts | 40° |
| 2026-04-22 11:56 | -31.53942 | 154.05770 | 35171 ft | 545 kts | 40° |
| 2026-04-22 11:57 | -31.48183 | 154.11500 | 35263 ft | 549 kts | 40° |
| 2026-04-22 11:57 | -31.42333 | 154.17313 | 35262 ft | 553 kts | 39° |
| 2026-04-22 11:58 | -31.36459 | 154.23142 | 35265 ft | 553 kts | 39° |
| 2026-04-22 11:58 | -31.30597 | 154.28949 | 35265 ft | 552 kts | 39° |
| 2026-04-22 11:59 | -31.24768 | 154.34714 | 35244 ft | 552 kts | 39° |
| 2026-04-22 11:59 | -31.18896 | 154.40511 | 35258 ft | 553 kts | 39° |
| 2026-04-22 12:00 | -31.13010 | 154.46313 | 35260 ft | 554 kts | 39° |
| 2026-04-22 12:00 | -31.07123 | 154.52106 | 35255 ft | 554 kts | 39° |
| 2026-04-22 12:01 | -31.01266 | 154.57859 | 35253 ft | 554 kts | 39° |
| 2026-04-22 12:01 | -30.95376 | 154.63636 | 35241 ft | 553 kts | 39° |
| 2026-04-22 12:02 | -30.89483 | 154.69405 | 35252 ft | 554 kts | 39° |
| 2026-04-22 12:02 | -30.83579 | 154.75176 | 35249 ft | 555 kts | 39° |
| 2026-04-22 12:03 | -30.77661 | 154.80951 | 35246 ft | 555 kts | 38° |
| 2026-04-22 12:03 | -30.71784 | 154.86676 | 35244 ft | 555 kts | 38° |
| 2026-04-22 12:04 | -30.65864 | 154.92434 | 35243 ft | 555 kts | 38° |
| 2026-04-22 12:04 | -30.59942 | 154.98184 | 35235 ft | 555 kts | 38° |
| 2026-04-22 12:05 | -30.54059 | 155.03887 | 35242 ft | 555 kts | 38° |
| 2026-04-22 12:05 | -30.48126 | 155.09628 | 35240 ft | 556 kts | 38° |
| 2026-04-22 12:06 | -30.42187 | 155.15367 | 35238 ft | 556 kts | 38° |
| 2026-04-22 12:06 | -30.36252 | 155.21093 | 35253 ft | 555 kts | 38° |
| 2026-04-22 12:07 | -30.30315 | 155.26810 | 35229 ft | 555 kts | 38° |
| 2026-04-22 12:07 | -30.24417 | 155.32481 | 35226 ft | 555 kts | 38° |
| 2026-04-22 12:08 | -30.18477 | 155.38183 | 35198 ft | 555 kts | 37° |
| 2026-04-22 12:08 | -30.12540 | 155.43873 | 35223 ft | 554 kts | 37° |
| 2026-04-22 12:09 | -30.06601 | 155.49555 | 35222 ft | 554 kts | 37° |
| 2026-04-22 12:09 | -30.00663 | 155.55228 | 35221 ft | 554 kts | 37° |
| 2026-04-22 12:10 | -29.94765 | 155.60853 | 35217 ft | 554 kts | 37° |
| 2026-04-22 12:10 | -29.88825 | 155.66509 | 35221 ft | 554 kts | 37° |
| 2026-04-22 12:11 | -29.82873 | 155.72167 | 35218 ft | 555 kts | 37° |
| 2026-04-22 12:11 | -29.76916 | 155.77822 | 35218 ft | 555 kts | 37° |
| 2026-04-22 12:12 | -29.71006 | 155.83424 | 35215 ft | 554 kts | 36° |
| 2026-04-22 12:12 | -29.65048 | 155.89061 | 35212 ft | 554 kts | 36° |
| 2026-04-22 12:13 | -29.59094 | 155.94686 | 35225 ft | 554 kts | 36° |
| 2026-04-22 12:13 | -29.53129 | 156.00311 | 35207 ft | 555 kts | 36° |
| 2026-04-22 12:14 | -29.47199 | 156.05896 | 35208 ft | 555 kts | 36° |
| 2026-04-22 12:14 | -29.41240 | 156.11500 | 35209 ft | 554 kts | 36° |
| 2026-04-22 12:15 | -29.35273 | 156.17102 | 35209 ft | 554 kts | 36° |
| 2026-04-22 12:15 | -29.29311 | 156.22690 | 35185 ft | 554 kts | 36° |
| 2026-04-22 12:16 | -29.23392 | 156.28229 | 35204 ft | 553 kts | 35° |
| 2026-04-22 12:16 | -29.17430 | 156.33800 | 35203 ft | 553 kts | 35° |
| 2026-04-22 12:17 | -29.11464 | 156.39366 | 35192 ft | 553 kts | 35° |
| 2026-04-22 12:17 | -29.05490 | 156.44931 | 35193 ft | 553 kts | 35° |
| 2026-04-22 12:18 | -28.99531 | 156.50474 | 35197 ft | 552 kts | 35° |
| 2026-04-22 12:18 | -28.93621 | 156.55962 | 35193 ft | 552 kts | 35° |
| 2026-04-22 12:19 | -28.87660 | 156.61490 | 35186 ft | 552 kts | 35° |
| 2026-04-22 12:19 | -28.81700 | 156.67007 | 35186 ft | 552 kts | 34° |
| 2026-04-22 12:20 | -28.75736 | 156.72521 | 35190 ft | 551 kts | 34° |
| 2026-04-22 12:20 | -28.69825 | 156.77977 | 35186 ft | 551 kts | 34° |
| 2026-04-22 12:21 | -28.63872 | 156.83464 | 35187 ft | 551 kts | 34° |
| 2026-04-22 12:21 | -28.57917 | 156.88944 | 35187 ft | 551 kts | 34° |
| 2026-04-22 12:22 | -28.51957 | 156.94421 | 35188 ft | 551 kts | 34° |
| 2026-04-22 12:22 | -28.46027 | 156.99861 | 35187 ft | 551 kts | 34° |
| 2026-04-22 12:23 | -28.40060 | 157.05328 | 35183 ft | 551 kts | 34° |
| 2026-04-22 12:23 | -28.34092 | 157.10788 | 35182 ft | 550 kts | 34° |
| 2026-04-22 12:24 | -28.28140 | 157.16226 | 35180 ft | 549 kts | 34° |
| 2026-04-22 12:24 | -28.22186 | 157.21656 | 35178 ft | 549 kts | 34° |
| 2026-04-22 12:25 | -28.16268 | 157.27045 | 35183 ft | 549 kts | 34° |
| 2026-04-22 12:25 | -28.10308 | 157.32465 | 35177 ft | 549 kts | 34° |
| 2026-04-22 12:26 | -28.04358 | 157.37869 | 35178 ft | 548 kts | 34° |
| 2026-04-22 12:26 | -27.98410 | 157.43262 | 35173 ft | 548 kts | 34° |
| 2026-04-22 12:27 | -27.92498 | 157.48615 | 35176 ft | 548 kts | 34° |
| 2026-04-22 12:27 | -27.86543 | 157.53999 | 35174 ft | 548 kts | 34° |
| 2026-04-22 12:28 | -27.80591 | 157.59372 | 35170 ft | 548 kts | 33° |
| 2026-04-22 12:28 | -27.74638 | 157.64739 | 35170 ft | 548 kts | 33° |
| 2026-04-22 12:29 | -27.68687 | 157.70096 | 35170 ft | 547 kts | 33° |
| 2026-04-22 12:29 | -27.62772 | 157.75413 | 35168 ft | 547 kts | 33° |
| 2026-04-22 12:30 | -27.53837 | 157.83431 | 35168 ft | 547 kts | 33° |
| 2026-04-22 12:31 | -27.47884 | 157.88763 | 35173 ft | 547 kts | 33° |
| 2026-04-22 12:31 | -27.41964 | 157.94058 | 35146 ft | 547 kts | 33° |
| 2026-04-22 12:32 | -27.36010 | 157.99377 | 35167 ft | 547 kts | 33° |
| 2026-04-22 12:32 | -27.27073 | 158.07344 | 35165 ft | 547 kts | 33° |
| 2026-04-22 12:33 | -27.21112 | 158.12650 | 35162 ft | 546 kts | 33° |
| 2026-04-22 12:33 | -27.15191 | 158.17913 | 35159 ft | 547 kts | 33° |
| 2026-04-22 12:34 | -27.09229 | 158.23205 | 35163 ft | 546 kts | 33° |
| 2026-04-22 12:34 | -27.03270 | 158.28486 | 35161 ft | 546 kts | 33° |
| 2026-04-22 12:35 | -26.97312 | 158.33760 | 35162 ft | 546 kts | 33° |
| 2026-04-22 12:35 | -26.91395 | 158.38990 | 35151 ft | 546 kts | 32° |
| 2026-04-22 12:36 | -26.85430 | 158.44257 | 35160 ft | 546 kts | 32° |
| 2026-04-22 12:36 | -26.79467 | 158.49512 | 35159 ft | 545 kts | 32° |
| 2026-04-22 12:37 | -26.73500 | 158.54760 | 35156 ft | 545 kts | 32° |
| 2026-04-22 12:37 | -26.67537 | 158.59999 | 35129 ft | 545 kts | 32° |
| 2026-04-22 12:38 | -26.61607 | 158.65203 | 35157 ft | 545 kts | 32° |
| 2026-04-22 12:38 | -26.55644 | 158.70429 | 35157 ft | 545 kts | 32° |
| 2026-04-22 12:39 | -26.46700 | 158.78254 | 35154 ft | 545 kts | 32° |
| 2026-04-22 12:40 | -26.40726 | 158.83471 | 35142 ft | 545 kts | 32° |
| 2026-04-22 12:40 | -26.34802 | 158.88639 | 35150 ft | 544 kts | 32° |
| 2026-04-22 12:41 | -26.28839 | 158.93833 | 35154 ft | 544 kts | 32° |
| 2026-04-22 12:41 | -26.22873 | 158.99023 | 35149 ft | 544 kts | 32° |
| 2026-04-22 12:42 | -26.16912 | 159.04201 | 35148 ft | 544 kts | 32° |
| 2026-04-22 12:42 | -26.10985 | 159.09343 | 35151 ft | 544 kts | 32° |
| 2026-04-22 12:43 | -26.05016 | 159.14515 | 35149 ft | 544 kts | 32° |
| 2026-04-22 12:43 | -25.99048 | 159.19679 | 35167 ft | 544 kts | 32° |
| 2026-04-22 12:44 | -25.93081 | 159.24835 | 35107 ft | 543 kts | 32° |
| 2026-04-22 12:44 | -25.87152 | 159.29952 | 35144 ft | 543 kts | 32° |
| 2026-04-22 12:45 | -25.81192 | 159.35089 | 35143 ft | 542 kts | 32° |
| 2026-04-22 12:45 | -25.75231 | 159.40219 | 35145 ft | 542 kts | 32° |
| 2026-04-22 12:46 | -25.69272 | 159.45342 | 35146 ft | 542 kts | 32° |
| 2026-04-22 12:46 | -25.63346 | 159.50429 | 35144 ft | 542 kts | 32° |
| 2026-04-22 12:47 | -25.57388 | 159.55538 | 35141 ft | 542 kts | 32° |
| 2026-04-22 12:47 | -25.51428 | 159.60641 | 35141 ft | 542 kts | 31° |
| 2026-04-22 12:48 | -25.45465 | 159.65741 | 35143 ft | 541 kts | 31° |
| 2026-04-22 12:48 | -25.39542 | 159.70799 | 35131 ft | 541 kts | 31° |
| 2026-04-22 12:49 | -25.33582 | 159.75884 | 35138 ft | 541 kts | 31° |
| 2026-04-22 12:49 | -25.27622 | 159.80961 | 35138 ft | 541 kts | 31° |
| 2026-04-22 12:50 | -25.21664 | 159.86030 | 35138 ft | 541 kts | 31° |
| 2026-04-22 12:50 | -25.15701 | 159.91097 | 35134 ft | 540 kts | 31° |
| 2026-04-22 12:51 | -25.09787 | 159.96117 | 35134 ft | 540 kts | 31° |
| 2026-04-22 12:51 | -25.03841 | 160.01157 | 35134 ft | 539 kts | 31° |
| 2026-04-22 12:52 | -24.97885 | 160.06198 | 35132 ft | 539 kts | 31° |
| 2026-04-22 12:52 | -24.91938 | 160.11227 | 35130 ft | 539 kts | 31° |
| 2026-04-22 12:53 | -24.86083 | 160.16178 | 35132 ft | 530 kts | 31° |
| 2026-04-22 12:53 | -24.80188 | 160.21144 | 35138 ft | 537 kts | 31° |
| 2026-04-22 12:54 | -24.74215 | 160.26167 | 35128 ft | 543 kts | 31° |
| 2026-04-22 12:54 | -24.68188 | 160.31236 | 35127 ft | 547 kts | 31° |
| 2026-04-22 12:54 | -24.65204 | 160.33752 | 35131 ft | 533 kts | 31° |
| 2026-04-22 12:55 | -24.63276 | 160.35382 | 35134 ft | 523 kts | 31° |
| 2026-04-22 12:55 | -24.56874 | 160.41338 | 35143 ft | 520 kts | 36° |
| 2026-04-22 12:56 | -24.51562 | 160.46771 | 35121 ft | 523 kts | 37° |
| 2026-04-22 12:56 | -24.46275 | 160.52253 | 35134 ft | 523 kts | 37° |
| 2026-04-22 12:57 | -24.40989 | 160.57730 | 35124 ft | 522 kts | 37° |
| 2026-04-22 12:57 | -24.35739 | 160.63152 | 35106 ft | 521 kts | 37° |
| 2026-04-22 12:58 | -24.30449 | 160.68599 | 35127 ft | 523 kts | 37° |
| 2026-04-22 12:58 | -24.25144 | 160.74055 | 35126 ft | 523 kts | 37° |
| 2026-04-22 12:59 | -24.19833 | 160.79514 | 35127 ft | 523 kts | 37° |
| 2026-04-22 12:59 | -24.14559 | 160.84927 | 35127 ft | 523 kts | 37° |
| 2026-04-22 13:00 | -24.09249 | 160.90372 | 35091 ft | 523 kts | 36° |
| 2026-04-22 13:00 | -24.03934 | 160.95813 | 35127 ft | 524 kts | 36° |
| 2026-04-22 13:01 | -23.98608 | 161.01260 | 35125 ft | 524 kts | 36° |
| 2026-04-22 13:01 | -23.93314 | 161.06668 | 35121 ft | 524 kts | 36° |
| 2026-04-22 13:02 | -23.87989 | 161.12103 | 35121 ft | 524 kts | 36° |
| 2026-04-22 13:02 | -23.82661 | 161.17533 | 35108 ft | 524 kts | 36° |
| 2026-04-22 13:03 | -23.77326 | 161.22962 | 35122 ft | 525 kts | 36° |
| 2026-04-22 13:03 | -23.72016 | 161.28361 | 35119 ft | 525 kts | 36° |
| 2026-04-22 13:04 | -23.66678 | 161.33782 | 35116 ft | 525 kts | 36° |
| 2026-04-22 13:04 | -23.61333 | 161.39205 | 35116 ft | 524 kts | 36° |
| 2026-04-22 13:05 | -23.55989 | 161.44619 | 35113 ft | 524 kts | 36° |
| 2026-04-22 13:05 | -23.50695 | 161.49979 | 35112 ft | 517 kts | 36° |
| 2026-04-22 13:05 | -23.48093 | 161.52621 | 35116 ft | 506 kts | 36° |
| 2026-04-22 13:06 | -23.45536 | 161.55214 | 35117 ft | 501 kts | 35° |
| 2026-04-22 13:06 | -23.40430 | 161.60363 | 35113 ft | 500 kts | 35° |
| 2026-04-22 13:07 | -23.35324 | 161.65501 | 35111 ft | 500 kts | 35° |
| 2026-04-22 13:07 | -23.31087 | 161.69766 | 35110 ft | 500 kts | 35° |
| 2026-04-22 13:08 | -23.25155 | 161.75736 | 35118 ft | 500 kts | 35° |
| 2026-04-22 13:08 | -23.20047 | 161.80871 | 35106 ft | 500 kts | 35° |
| 2026-04-22 13:09 | -23.15839 | 161.85105 | 35114 ft | 491 kts | 35° |
| 2026-04-22 13:09 | -23.10847 | 161.90119 | 35105 ft | 488 kts | 35° |
| 2026-04-22 13:10 | -23.05053 | 161.95918 | 35114 ft | 488 kts | 34° |
| 2026-04-22 13:10 | -23.00058 | 162.00914 | 35091 ft | 488 kts | 34° |
| 2026-04-22 13:11 | -22.95915 | 162.05057 | 35104 ft | 487 kts | 34° |
| 2026-04-22 13:11 | -22.90931 | 162.10037 | 35105 ft | 487 kts | 34° |
| 2026-04-22 13:12 | -22.85104 | 162.15852 | 35109 ft | 487 kts | 34° |
| 2026-04-22 13:12 | -22.80963 | 162.19980 | 35099 ft | 487 kts | 34° |
| 2026-04-22 13:13 | -22.76007 | 162.24916 | 35103 ft | 487 kts | 34° |
| 2026-04-22 13:13 | -22.71022 | 162.29877 | 35097 ft | 486 kts | 34° |
| 2026-04-22 13:14 | -22.66050 | 162.34820 | 35100 ft | 485 kts | 34° |
| 2026-04-22 13:14 | -22.61076 | 162.39758 | 35099 ft | 485 kts | 34° |
| 2026-04-22 13:15 | -22.56136 | 162.44657 | 35094 ft | 485 kts | 34° |
| 2026-04-22 13:15 | -22.51165 | 162.49582 | 35097 ft | 485 kts | 34° |
| 2026-04-22 13:16 | -22.46189 | 162.54508 | 35094 ft | 485 kts | 34° |
| 2026-04-22 13:16 | -22.41214 | 162.59428 | 35091 ft | 485 kts | 34° |
| 2026-04-22 13:17 | -22.36274 | 162.64308 | 35090 ft | 484 kts | 34° |
| 2026-04-22 13:17 | -22.31311 | 162.69206 | 35097 ft | 483 kts | 34° |
| 2026-04-22 13:18 | -22.26344 | 162.74103 | 35092 ft | 483 kts | 34° |
| 2026-04-22 13:18 | -22.21376 | 162.78995 | 35093 ft | 483 kts | 34° |
| 2026-04-22 13:19 | -22.16411 | 162.83880 | 35088 ft | 483 kts | 34° |
| 2026-04-22 13:19 | -22.11477 | 162.88731 | 35096 ft | 483 kts | 34° |
| 2026-04-22 13:20 | -22.06517 | 162.93601 | 35097 ft | 482 kts | 34° |
| 2026-04-22 13:20 | -22.01556 | 162.98472 | 35088 ft | 483 kts | 34° |
| 2026-04-22 13:21 | -21.96924 | 163.03793 | 35094 ft | 488 kts | 41° |
| 2026-04-22 13:21 | -21.92474 | 163.09270 | 35089 ft | 489 kts | 41° |
| 2026-04-22 13:22 | -21.88022 | 163.14808 | 35073 ft | 489 kts | 41° |
| 2026-04-22 13:22 | -21.83569 | 163.20334 | 35079 ft | 488 kts | 41° |
| 2026-04-22 13:23 | -21.79106 | 163.25852 | 35091 ft | 488 kts | 41° |
| 2026-04-22 13:23 | -21.74674 | 163.31321 | 35085 ft | 488 kts | 41° |
| 2026-04-22 13:24 | -21.70215 | 163.36816 | 35085 ft | 488 kts | 41° |
| 2026-04-22 13:24 | -21.65752 | 163.42311 | 35079 ft | 488 kts | 41° |
| 2026-04-22 13:25 | -21.61291 | 163.47798 | 35038 ft | 487 kts | 41° |
| 2026-04-22 13:25 | -21.56859 | 163.53246 | 35078 ft | 487 kts | 41° |
| 2026-04-22 13:26 | -21.52399 | 163.58721 | 35079 ft | 487 kts | 41° |
| 2026-04-22 13:26 | -21.47936 | 163.64194 | 35073 ft | 487 kts | 41° |
| 2026-04-22 13:27 | -21.43477 | 163.69657 | 35063 ft | 486 kts | 40° |
| 2026-04-22 13:27 | -21.39047 | 163.75080 | 35071 ft | 486 kts | 40° |
| 2026-04-22 13:28 | -21.34591 | 163.80528 | 35079 ft | 486 kts | 40° |
| 2026-04-22 13:28 | -21.30132 | 163.85975 | 35072 ft | 486 kts | 40° |
| 2026-04-22 13:29 | -21.25676 | 163.91413 | 35067 ft | 485 kts | 40° |
| 2026-04-22 13:29 | -21.21245 | 163.96814 | 35067 ft | 485 kts | 40° |
| 2026-04-22 13:30 | -21.16785 | 164.02246 | 35069 ft | 485 kts | 40° |
| 2026-04-22 13:30 | -21.12330 | 164.07667 | 35067 ft | 484 kts | 40° |
| 2026-04-22 13:31 | -21.07878 | 164.13078 | 35067 ft | 484 kts | 40° |
| 2026-04-22 13:31 | -21.03452 | 164.18452 | 35038 ft | 484 kts | 40° |
| 2026-04-22 13:32 | -20.99000 | 164.23853 | 35064 ft | 484 kts | 40° |
| 2026-04-22 13:32 | -20.94544 | 164.29253 | 35064 ft | 484 kts | 40° |
| 2026-04-22 13:33 | -20.90088 | 164.34647 | 35064 ft | 484 kts | 40° |
| 2026-04-22 13:33 | -20.85662 | 164.40001 | 35066 ft | 483 kts | 39° |
| 2026-04-22 13:34 | -20.81218 | 164.45373 | 35066 ft | 482 kts | 39° |
| 2026-04-22 13:34 | -20.76771 | 164.50742 | 35070 ft | 483 kts | 39° |
| 2026-04-22 13:35 | -20.72317 | 164.56112 | 35073 ft | 483 kts | 39° |
| 2026-04-22 13:35 | -20.67895 | 164.61438 | 35074 ft | 483 kts | 39° |
| 2026-04-22 13:36 | -20.63446 | 164.66794 | 35074 ft | 482 kts | 39° |
| 2026-04-22 13:36 | -20.58993 | 164.72149 | 35077 ft | 482 kts | 39° |
| 2026-04-22 13:37 | -20.54543 | 164.77494 | 35063 ft | 481 kts | 39° |
| 2026-04-22 13:37 | -20.50131 | 164.82791 | 35062 ft | 481 kts | 39° |
| 2026-04-22 13:38 | -20.45687 | 164.88120 | 35041 ft | 480 kts | 39° |
| 2026-04-22 13:38 | -20.39022 | 164.96104 | 35048 ft | 480 kts | 39° |
| 2026-04-22 13:39 | -20.34581 | 165.01416 | 35041 ft | 480 kts | 39° |
| 2026-04-22 13:39 | -20.30169 | 165.06690 | 35040 ft | 480 kts | 39° |
| 2026-04-22 13:40 | -20.25731 | 165.11990 | 35043 ft | 479 kts | 39° |
| 2026-04-22 13:40 | -20.21306 | 165.17271 | 35037 ft | 477 kts | 39° |
| 2026-04-22 13:41 | -20.16882 | 165.22543 | 35008 ft | 477 kts | 39° |
| 2026-04-22 13:41 | -20.12492 | 165.27771 | 35032 ft | 476 kts | 39° |
| 2026-04-22 13:42 | -20.08085 | 165.33014 | 35030 ft | 475 kts | 39° |
| 2026-04-22 13:42 | -20.03677 | 165.38253 | 35037 ft | 475 kts | 39° |
| 2026-04-22 13:43 | -19.99265 | 165.43491 | 35027 ft | 475 kts | 39° |
| 2026-04-22 13:43 | -19.94854 | 165.48725 | 35033 ft | 475 kts | 39° |
| 2026-04-22 13:44 | -19.90474 | 165.53917 | 35024 ft | 475 kts | 39° |
| 2026-04-22 13:44 | -19.86058 | 165.59147 | 35012 ft | 475 kts | 39° |
| 2026-04-22 13:45 | -19.81650 | 165.64364 | 35027 ft | 474 kts | 39° |
| 2026-04-22 13:45 | -19.77250 | 165.69566 | 35026 ft | 473 kts | 39° |
| 2026-04-22 13:46 | -19.72877 | 165.74730 | 35019 ft | 474 kts | 39° |
| 2026-04-22 13:46 | -19.68471 | 165.79929 | 35020 ft | 473 kts | 39° |
| 2026-04-22 13:47 | -19.64071 | 165.85118 | 35021 ft | 473 kts | 39° |
| 2026-04-22 13:47 | -19.59671 | 165.90302 | 35018 ft | 473 kts | 39° |
| 2026-04-22 13:48 | -19.55301 | 165.95444 | 35008 ft | 473 kts | 39° |
| 2026-04-22 13:48 | -19.50903 | 166.00617 | 35009 ft | 472 kts | 39° |
| 2026-04-22 13:49 | -19.46514 | 166.05774 | 35015 ft | 471 kts | 39° |
| 2026-04-22 13:49 | -19.42119 | 166.10932 | 35010 ft | 471 kts | 39° |
| 2026-04-22 13:50 | -19.37757 | 166.16048 | 35004 ft | 471 kts | 39° |
| 2026-04-22 13:50 | -19.33363 | 166.21197 | 35005 ft | 471 kts | 39° |
| 2026-04-22 13:51 | -19.28968 | 166.26343 | 35001 ft | 471 kts | 39° |
| 2026-04-22 13:51 | -19.24575 | 166.31482 | 35002 ft | 471 kts | 39° |
| 2026-04-22 13:52 | -19.20180 | 166.36620 | 35003 ft | 471 kts | 39° |
| 2026-04-22 13:52 | -19.15817 | 166.41714 | 35002 ft | 471 kts | 39° |
| 2026-04-22 13:53 | -19.11421 | 166.46844 | 34999 ft | 471 kts | 39° |
| 2026-04-22 13:53 | -19.07022 | 166.51972 | 34993 ft | 470 kts | 39° |
| 2026-04-22 13:54 | -19.02632 | 166.57087 | 34993 ft | 469 kts | 39° |
| 2026-04-22 13:54 | -18.98274 | 166.62160 | 34995 ft | 469 kts | 39° |
| 2026-04-22 13:55 | -18.93886 | 166.67261 | 34988 ft | 469 kts | 39° |
| 2026-04-22 13:55 | -18.89503 | 166.72354 | 34994 ft | 468 kts | 39° |
| 2026-04-22 13:56 | -18.85121 | 166.77441 | 34991 ft | 468 kts | 39° |
| 2026-04-22 13:56 | -18.80767 | 166.82491 | 34990 ft | 468 kts | 39° |
| 2026-04-22 13:57 | -18.76384 | 166.87571 | 34986 ft | 468 kts | 39° |
| 2026-04-22 13:57 | -18.72000 | 166.92648 | 34986 ft | 468 kts | 39° |
| 2026-04-22 13:58 | -18.67618 | 166.97718 | 34988 ft | 467 kts | 39° |
| 2026-04-22 13:58 | -18.63240 | 167.02770 | 34979 ft | 466 kts | 39° |
| 2026-04-22 13:59 | -18.58901 | 167.07782 | 34980 ft | 465 kts | 39° |
| 2026-04-22 13:59 | -18.54544 | 167.12818 | 34980 ft | 465 kts | 39° |
| 2026-04-22 14:00 | -18.50182 | 167.17852 | 34979 ft | 465 kts | 39° |
| 2026-04-22 14:00 | -18.47718 | 167.20691 | 34980 ft | 465 kts | 39° |
| 2026-04-22 14:11 | -18.46810 | 167.21732 | 34953 ft | 465 kts | 47° |
| 2026-04-22 14:11 | -18.44612 | 167.24267 | 34781 ft | 471 kts | 40° |
| 2026-04-22 14:11 | -18.42432 | 167.26771 | 34886 ft | 471 kts | 39° |
| 2026-04-22 14:12 | -18.38006 | 167.31865 | 34967 ft | 471 kts | 39° |
| 2026-04-22 14:12 | -18.33621 | 167.36912 | 34958 ft | 470 kts | 40° |
| 2026-04-22 14:13 | -18.29207 | 167.41985 | 34968 ft | 469 kts | 40° |
| 2026-04-22 14:13 | -18.24796 | 167.47048 | 34967 ft | 469 kts | 40° |
| 2026-04-22 14:14 | -18.20350 | 167.52140 | 34961 ft | 476 kts | 40° |
| 2026-04-22 14:14 | -18.15857 | 167.57282 | 34960 ft | 484 kts | 40° |
| 2026-04-22 14:15 | -18.11262 | 167.62540 | 34962 ft | 493 kts | 40° |
| 2026-04-22 14:15 | -18.06587 | 167.67889 | 34959 ft | 501 kts | 40° |
| 2026-04-22 14:16 | -18.01837 | 167.73319 | 34944 ft | 508 kts | 41° |
| 2026-04-22 14:16 | -17.97019 | 167.78825 | 34953 ft | 515 kts | 41° |
| 2026-04-22 14:17 | -17.92167 | 167.84363 | 34954 ft | 521 kts | 41° |
| 2026-04-22 14:17 | -17.87260 | 167.89963 | 34955 ft | 521 kts | 41° |
| 2026-04-22 14:18 | -17.82355 | 167.95556 | 34955 ft | 520 kts | 41° |
| 2026-04-22 14:18 | -17.77451 | 168.01138 | 34966 ft | 519 kts | 41° |
| 2026-04-22 14:19 | -17.72556 | 168.06705 | 34971 ft | 519 kts | 41° |
| 2026-04-22 14:19 | -17.70907 | 168.08579 | 34974 ft | 519 kts | 41° |
| 2026-04-22 14:25 | -17.70727 | 168.08784 | 36282 ft | 519 kts | 41° |
| 2026-04-22 14:25 | -17.68315 | 168.11521 | 34810 ft | 522 kts | 43° |
| 2026-04-22 14:26 | -17.65848 | 168.14323 | 34807 ft | 522 kts | 41° |
| 2026-04-22 14:26 | -17.63394 | 168.17111 | 34969 ft | 521 kts | 41° |
| 2026-04-22 14:26 | -17.61520 | 168.19238 | 34988 ft | 520 kts | 41° |
| 2026-04-22 15:03 | -17.59461 | 168.21570 | 36227 ft | 521 kts | 42° |
| 2026-04-22 15:04 | -17.56994 | 168.24357 | 34867 ft | 522 kts | 41° |
| 2026-04-22 15:04 | -17.54520 | 168.27151 | 34939 ft | 522 kts | 41° |
| 2026-04-22 15:04 | -17.49616 | 168.32718 | 34938 ft | 519 kts | 41° |
| 2026-04-22 15:05 | -17.44751 | 168.38232 | 34944 ft | 519 kts | 41° |
| 2026-04-22 15:05 | -17.39852 | 168.43772 | 34932 ft | 518 kts | 41° |
| 2026-04-22 15:06 | -17.34949 | 168.49310 | 34942 ft | 518 kts | 41° |
| 2026-04-22 15:06 | -17.30055 | 168.54833 | 34941 ft | 518 kts | 41° |
| 2026-04-22 15:07 | -17.25188 | 168.60322 | 34939 ft | 518 kts | 41° |
| 2026-04-22 15:07 | -17.20290 | 168.65841 | 34937 ft | 518 kts | 41° |
| 2026-04-22 15:08 | -17.15391 | 168.71357 | 34935 ft | 518 kts | 41° |
| 2026-04-22 15:08 | -17.10490 | 168.76870 | 34936 ft | 518 kts | 41° |
| 2026-04-22 15:09 | -17.05614 | 168.82351 | 34933 ft | 518 kts | 41° |
| 2026-04-22 15:09 | -17.00710 | 168.87859 | 34929 ft | 518 kts | 41° |
| 2026-04-22 15:10 | -16.95806 | 168.93362 | 34936 ft | 518 kts | 41° |
| 2026-04-22 15:10 | -16.90898 | 168.98866 | 34940 ft | 518 kts | 41° |
| 2026-04-22 15:11 | -16.86022 | 169.04328 | 34941 ft | 518 kts | 41° |
| 2026-04-22 15:11 | -16.81112 | 169.09825 | 34929 ft | 518 kts | 41° |
| 2026-04-22 15:12 | -16.76202 | 169.15316 | 34929 ft | 518 kts | 41° |
| 2026-04-22 15:12 | -16.71292 | 169.20805 | 34930 ft | 517 kts | 41° |
| 2026-04-22 15:13 | -16.66420 | 169.26246 | 34935 ft | 516 kts | 41° |
| 2026-04-22 15:13 | -16.61518 | 169.31715 | 34927 ft | 516 kts | 41° |
| 2026-04-22 15:14 | -16.56609 | 169.37188 | 34931 ft | 516 kts | 41° |
| 2026-04-22 15:14 | -16.51703 | 169.42653 | 34934 ft | 516 kts | 41° |
| 2026-04-22 15:15 | -16.46799 | 169.48112 | 34939 ft | 516 kts | 42° |
| 2026-04-22 15:15 | -16.41928 | 169.53530 | 34933 ft | 515 kts | 42° |
| 2026-04-22 15:16 | -16.37035 | 169.58969 | 34930 ft | 514 kts | 42° |
| 2026-04-22 15:16 | -16.32144 | 169.64400 | 34930 ft | 514 kts | 42° |
| 2026-04-22 15:17 | -16.27253 | 169.69827 | 34927 ft | 514 kts | 42° |
| 2026-04-22 15:17 | -16.22362 | 169.75249 | 34931 ft | 514 kts | 42° |
| 2026-04-22 15:18 | -16.17502 | 169.80634 | 34928 ft | 514 kts | 42° |
| 2026-04-22 15:18 | -16.12615 | 169.86045 | 34930 ft | 512 kts | 42° |
| 2026-04-22 15:19 | -16.07736 | 169.91442 | 34930 ft | 513 kts | 42° |
| 2026-04-22 15:19 | -16.02835 | 169.96857 | 34930 ft | 515 kts | 42° |
| 2026-04-22 15:20 | -15.97908 | 170.02270 | 34927 ft | 514 kts | 41° |
| 2026-04-22 15:20 | -15.92877 | 170.07472 | 34928 ft | 514 kts | 40° |
| 2026-04-22 15:21 | -15.87770 | 170.12659 | 34924 ft | 513 kts | 40° |
| 2026-04-22 15:21 | -15.82680 | 170.17866 | 34923 ft | 514 kts | 40° |
| 2026-04-22 15:22 | -15.77598 | 170.23095 | 34926 ft | 515 kts | 40° |
| 2026-04-22 15:22 | -15.72552 | 170.28293 | 34922 ft | 514 kts | 41° |
| 2026-04-22 15:23 | -15.67476 | 170.33519 | 34922 ft | 514 kts | 41° |
| 2026-04-22 15:23 | -15.62403 | 170.38735 | 34923 ft | 514 kts | 41° |
| 2026-04-22 15:24 | -15.57324 | 170.43953 | 34921 ft | 514 kts | 40° |
| 2026-04-22 15:24 | -15.52280 | 170.49131 | 34927 ft | 514 kts | 40° |
| 2026-04-22 15:25 | -15.47198 | 170.54343 | 34918 ft | 514 kts | 41° |
| 2026-04-22 15:25 | -15.42126 | 170.59542 | 34918 ft | 512 kts | 41° |
| 2026-04-22 15:26 | -15.37065 | 170.64728 | 34922 ft | 511 kts | 41° |
| 2026-04-22 15:26 | -15.32009 | 170.69903 | 34925 ft | 511 kts | 41° |
| 2026-04-22 15:27 | -15.26988 | 170.75037 | 34924 ft | 511 kts | 41° |
| 2026-04-22 15:27 | -15.21931 | 170.80206 | 34921 ft | 511 kts | 41° |
| 2026-04-22 15:28 | -15.16872 | 170.85373 | 34917 ft | 511 kts | 41° |
| 2026-04-22 15:28 | -15.11846 | 170.90503 | 34920 ft | 511 kts | 41° |
| 2026-04-22 15:29 | -15.06777 | 170.95669 | 34921 ft | 513 kts | 41° |
| 2026-04-22 15:30 | -14.99990 | 171.02586 | 34922 ft | 515 kts | 41° |
| 2026-04-22 15:30 | -14.94021 | 171.08667 | 34928 ft | 515 kts | 41° |
| 2026-04-22 15:31 | -14.88949 | 171.13829 | 34913 ft | 515 kts | 41° |
| 2026-04-22 15:31 | -14.83843 | 171.19020 | 34915 ft | 515 kts | 41° |
| 2026-04-22 15:32 | -14.78729 | 171.24216 | 34923 ft | 515 kts | 41° |
| 2026-04-22 15:32 | -14.73621 | 171.29401 | 34915 ft | 515 kts | 40° |
| 2026-04-22 15:33 | -14.68553 | 171.34544 | 34930 ft | 514 kts | 40° |
| 2026-04-22 15:33 | -14.63452 | 171.39716 | 34923 ft | 514 kts | 40° |
| 2026-04-22 15:34 | -14.58352 | 171.44882 | 34912 ft | 514 kts | 40° |
| 2026-04-22 15:34 | -14.53252 | 171.50046 | 34930 ft | 514 kts | 40° |
| 2026-04-22 15:35 | -14.49011 | 171.54337 | 34912 ft | 514 kts | 40° |
| 2026-04-22 15:35 | -14.43081 | 171.60334 | 34914 ft | 514 kts | 40° |
| 2026-04-22 15:36 | -14.37975 | 171.65493 | 34925 ft | 514 kts | 40° |
| 2026-04-22 15:36 | -14.32868 | 171.70649 | 34921 ft | 514 kts | 40° |
| 2026-04-22 15:37 | -14.27787 | 171.75776 | 34907 ft | 514 kts | 40° |
| 2026-04-22 15:37 | -14.22675 | 171.80931 | 34921 ft | 514 kts | 40° |
| 2026-04-22 15:38 | -14.17561 | 171.86084 | 34914 ft | 514 kts | 40° |
| 2026-04-22 15:38 | -14.09882 | 171.93816 | 34913 ft | 514 kts | 40° |
| 2026-04-22 15:39 | -14.04796 | 171.98932 | 34919 ft | 515 kts | 40° |
| 2026-04-22 15:39 | -13.99676 | 172.04080 | 34918 ft | 515 kts | 41° |
| 2026-04-22 15:40 | -13.94549 | 172.09231 | 34914 ft | 515 kts | 41° |
| 2026-04-22 15:40 | -13.89419 | 172.14382 | 34916 ft | 515 kts | 41° |
| 2026-04-22 15:41 | -13.84326 | 172.19493 | 34916 ft | 515 kts | 40° |
| 2026-04-22 15:41 | -13.79193 | 172.24640 | 34919 ft | 515 kts | 40° |
| 2026-04-22 15:42 | -13.74061 | 172.29783 | 34916 ft | 515 kts | 40° |
| 2026-04-22 15:42 | -13.68928 | 172.34923 | 34916 ft | 515 kts | 41° |
| 2026-04-22 15:43 | -13.63831 | 172.40025 | 34919 ft | 514 kts | 41° |
| 2026-04-22 15:43 | -13.58703 | 172.45154 | 34919 ft | 515 kts | 41° |
| 2026-04-22 15:44 | -13.53573 | 172.50282 | 34914 ft | 515 kts | 41° |
| 2026-04-22 15:44 | -13.48440 | 172.55408 | 34914 ft | 515 kts | 41° |
| 2026-04-22 15:45 | -13.43341 | 172.60498 | 34912 ft | 515 kts | 41° |
| 2026-04-22 15:45 | -13.38205 | 172.65622 | 34903 ft | 515 kts | 41° |
| 2026-04-22 15:46 | -13.33068 | 172.70745 | 34912 ft | 515 kts | 41° |
| 2026-04-22 15:46 | -13.28800 | 172.74997 | 34916 ft | 515 kts | 41° |
| 2026-04-22 15:47 | -13.22827 | 172.80946 | 34916 ft | 515 kts | 41° |
| 2026-04-22 15:47 | -13.17683 | 172.86065 | 34915 ft | 515 kts | 41° |
| 2026-04-22 15:48 | -13.12546 | 172.91174 | 34912 ft | 515 kts | 41° |
| 2026-04-22 15:48 | -13.07401 | 172.96288 | 34912 ft | 515 kts | 41° |
| 2026-04-22 15:49 | -13.02295 | 173.01359 | 34914 ft | 515 kts | 41° |
| 2026-04-22 15:49 | -12.97143 | 173.06474 | 34910 ft | 516 kts | 41° |
| 2026-04-22 15:50 | -12.92857 | 173.10727 | 34909 ft | 516 kts | 41° |
| 2026-04-22 15:50 | -12.87701 | 173.15839 | 34904 ft | 516 kts | 41° |
| 2026-04-22 15:51 | -12.81712 | 173.21774 | 34907 ft | 515 kts | 41° |
| 2026-04-22 15:51 | -12.76563 | 173.26874 | 34905 ft | 515 kts | 41° |
| 2026-04-22 15:52 | -12.72282 | 173.31111 | 34903 ft | 515 kts | 41° |
| 2026-04-22 15:52 | -12.67131 | 173.36207 | 34900 ft | 515 kts | 42° |
| 2026-04-22 15:53 | -12.61974 | 173.41305 | 34903 ft | 516 kts | 42° |
| 2026-04-22 15:53 | -12.56850 | 173.46368 | 34903 ft | 516 kts | 42° |
| 2026-04-22 15:54 | -12.51685 | 173.51469 | 34897 ft | 516 kts | 42° |
| 2026-04-22 15:54 | -12.46525 | 173.56562 | 34897 ft | 516 kts | 42° |
| 2026-04-22 15:55 | -12.41363 | 173.61653 | 34899 ft | 515 kts | 42° |
| 2026-04-22 15:55 | -12.36232 | 173.66711 | 34894 ft | 515 kts | 42° |
| 2026-04-22 15:56 | -12.31071 | 173.71796 | 34896 ft | 515 kts | 42° |
| 2026-04-22 15:56 | -12.25918 | 173.76870 | 34898 ft | 514 kts | 42° |
| 2026-04-22 15:57 | -12.20769 | 173.81937 | 34895 ft | 514 kts | 42° |
| 2026-04-22 15:57 | -12.15655 | 173.86967 | 34895 ft | 514 kts | 42° |
| 2026-04-22 15:58 | -12.10507 | 173.92027 | 34890 ft | 514 kts | 42° |
| 2026-04-22 15:58 | -12.05366 | 173.97078 | 34892 ft | 512 kts | 42° |
| 2026-04-22 15:59 | -12.00228 | 174.02122 | 34891 ft | 512 kts | 42° |
| 2026-04-22 15:59 | -11.95133 | 174.07122 | 34889 ft | 511 kts | 42° |
| 2026-04-22 16:00 | -11.90011 | 174.12147 | 34892 ft | 510 kts | 42° |
| 2026-04-22 16:00 | -11.84889 | 174.17167 | 34892 ft | 510 kts | 42° |
| 2026-04-22 16:01 | -11.79770 | 174.22182 | 34889 ft | 510 kts | 42° |
| 2026-04-22 16:01 | -11.74681 | 174.27166 | 34889 ft | 510 kts | 42° |
| 2026-04-22 16:02 | -11.69557 | 174.32179 | 34889 ft | 511 kts | 43° |
| 2026-04-22 16:02 | -11.64426 | 174.37198 | 34889 ft | 511 kts | 43° |
| 2026-04-22 16:03 | -11.59292 | 174.42217 | 34888 ft | 511 kts | 43° |
| 2026-04-22 16:03 | -11.54156 | 174.47236 | 34889 ft | 511 kts | 43° |
| 2026-04-22 16:04 | -11.49062 | 174.52210 | 34889 ft | 511 kts | 43° |
| 2026-04-22 16:04 | -11.43927 | 174.57223 | 34890 ft | 511 kts | 43° |
| 2026-04-22 16:05 | -11.38794 | 174.62230 | 34889 ft | 511 kts | 43° |
| 2026-04-22 16:05 | -11.33659 | 174.67236 | 34889 ft | 511 kts | 43° |
| 2026-04-22 16:06 | -11.28562 | 174.72204 | 34889 ft | 511 kts | 43° |
| 2026-04-22 16:06 | -11.23431 | 174.77202 | 34883 ft | 510 kts | 43° |
| 2026-04-22 16:07 | -11.18298 | 174.82198 | 34884 ft | 510 kts | 43° |
| 2026-04-22 16:07 | -11.13171 | 174.87187 | 34883 ft | 510 kts | 43° |
| 2026-04-22 16:08 | -11.08075 | 174.92143 | 34884 ft | 510 kts | 43° |
| 2026-04-22 16:08 | -11.02947 | 174.97128 | 34884 ft | 510 kts | 43° |
| 2026-04-22 16:09 | -10.97799 | 175.02072 | 35203 ft | 506 kts | 40° |
| 2026-04-22 16:09 | -10.95135 | 175.04395 | 35498 ft | 503 kts | 39° |
| 2026-04-22 16:09 | -10.92434 | 175.06648 | 35670 ft | 502 kts | 38° |
| 2026-04-22 16:10 | -10.89722 | 175.08879 | 35817 ft | 502 kts | 38° |
| 2026-04-22 16:10 | -10.87013 | 175.11117 | 35964 ft | 502 kts | 39° |
| 2026-04-22 16:10 | -10.84351 | 175.13339 | 36126 ft | 501 kts | 39° |
| 2026-04-22 16:10 | -10.81665 | 175.15600 | 36270 ft | 501 kts | 39° |
| 2026-04-22 16:11 | -10.78991 | 175.17865 | 36415 ft | 501 kts | 39° |
| 2026-04-22 16:11 | -10.76321 | 175.20135 | 36552 ft | 500 kts | 39° |
| 2026-04-22 16:11 | -10.73651 | 175.22407 | 36685 ft | 500 kts | 39° |
| 2026-04-22 16:11 | -10.70985 | 175.24677 | 36821 ft | 500 kts | 39° |
| 2026-04-22 16:12 | -10.65632 | 175.29229 | 36885 ft | 504 kts | 39° |
| 2026-04-22 16:12 | -10.60273 | 175.33781 | 36885 ft | 506 kts | 39° |
| 2026-04-22 16:13 | -10.54875 | 175.38363 | 36880 ft | 505 kts | 39° |
| 2026-04-22 16:13 | -10.49479 | 175.42937 | 36888 ft | 505 kts | 40° |
| 2026-04-22 16:14 | -10.44083 | 175.47508 | 36885 ft | 505 kts | 40° |
| 2026-04-22 16:14 | -10.38735 | 175.52047 | 36881 ft | 505 kts | 40° |
| 2026-04-22 16:15 | -10.33343 | 175.56618 | 36879 ft | 505 kts | 40° |
| 2026-04-22 16:15 | -10.27955 | 175.61181 | 36882 ft | 505 kts | 40° |
| 2026-04-22 16:16 | -10.22562 | 175.65747 | 36883 ft | 505 kts | 40° |
| 2026-04-22 16:16 | -10.17207 | 175.70277 | 36880 ft | 505 kts | 40° |
| 2026-04-22 16:17 | -10.11811 | 175.74840 | 36887 ft | 505 kts | 40° |
| 2026-04-22 16:17 | -10.06418 | 175.79399 | 36882 ft | 505 kts | 40° |
| 2026-04-22 16:18 | -10.01022 | 175.83958 | 36880 ft | 505 kts | 40° |
| 2026-04-22 16:18 | -9.95658 | 175.88488 | 36881 ft | 505 kts | 40° |
| 2026-04-22 16:19 | -9.90259 | 175.93046 | 36879 ft | 505 kts | 40° |
| 2026-04-22 16:19 | -9.84860 | 175.97602 | 36878 ft | 505 kts | 40° |
| 2026-04-22 16:20 | -9.79457 | 176.02157 | 36881 ft | 505 kts | 40° |
| 2026-04-22 16:20 | -9.74102 | 176.06671 | 36880 ft | 504 kts | 40° |
| 2026-04-22 16:21 | -9.68714 | 176.11213 | 36881 ft | 504 kts | 40° |
| 2026-04-22 16:21 | -9.63324 | 176.15754 | 36878 ft | 504 kts | 40° |
| 2026-04-22 16:22 | -9.55240 | 176.22559 | 36882 ft | 503 kts | 40° |
| 2026-04-22 16:23 | -9.47200 | 176.29325 | 36884 ft | 503 kts | 40° |
| 2026-04-22 16:23 | -9.41815 | 176.33853 | 36883 ft | 503 kts | 40° |
| 2026-04-22 16:24 | -9.33752 | 176.40627 | 36881 ft | 502 kts | 40° |
| 2026-04-22 16:25 | -9.28413 | 176.45113 | 36884 ft | 502 kts | 40° |
| 2026-04-22 16:25 | -9.20354 | 176.51881 | 36880 ft | 502 kts | 40° |
| 2026-04-22 16:26 | -9.14984 | 176.56387 | 36882 ft | 502 kts | 40° |
| 2026-04-22 16:26 | -9.09608 | 176.60897 | 36881 ft | 502 kts | 40° |
| 2026-04-22 16:27 | -9.04234 | 176.65406 | 36880 ft | 501 kts | 41° |
| 2026-04-22 16:27 | -8.98908 | 176.69871 | 36880 ft | 501 kts | 40° |
| 2026-04-22 16:28 | -8.93536 | 176.74369 | 36886 ft | 501 kts | 40° |
| 2026-04-22 16:28 | -8.88175 | 176.78857 | 36881 ft | 501 kts | 40° |
| 2026-04-22 16:29 | -8.82807 | 176.83351 | 36885 ft | 501 kts | 40° |
| 2026-04-22 16:29 | -8.77478 | 176.87811 | 36883 ft | 501 kts | 40° |
| 2026-04-22 16:30 | -8.72109 | 176.92302 | 36884 ft | 501 kts | 40° |
| 2026-04-22 16:30 | -8.66745 | 176.96788 | 36887 ft | 500 kts | 41° |
| 2026-04-22 16:31 | -8.61378 | 177.01276 | 36885 ft | 501 kts | 41° |
| 2026-04-22 16:31 | -8.56043 | 177.05738 | 36883 ft | 501 kts | 40° |
| 2026-04-22 16:32 | -8.50669 | 177.10223 | 36881 ft | 501 kts | 40° |
| 2026-04-22 16:32 | -8.45295 | 177.14707 | 36883 ft | 501 kts | 40° |
| 2026-04-22 16:33 | -8.39921 | 177.19192 | 36886 ft | 501 kts | 40° |
| 2026-04-22 16:33 | -8.34547 | 177.23675 | 36882 ft | 501 kts | 40° |
| 2026-04-22 16:34 | -8.29205 | 177.28131 | 36883 ft | 501 kts | 41° |
| 2026-04-22 16:34 | -8.23830 | 177.32612 | 36885 ft | 501 kts | 41° |
| 2026-04-22 16:35 | -8.18456 | 177.37091 | 36883 ft | 501 kts | 41° |
| 2026-04-22 16:35 | -8.13076 | 177.41572 | 36884 ft | 501 kts | 41° |
| 2026-04-22 16:36 | -8.07735 | 177.46021 | 36882 ft | 501 kts | 41° |
| 2026-04-22 16:36 | -8.02357 | 177.50498 | 36880 ft | 501 kts | 41° |
| 2026-04-22 16:37 | -7.96976 | 177.54976 | 36881 ft | 501 kts | 41° |
| 2026-04-22 16:37 | -7.91600 | 177.59450 | 36884 ft | 500 kts | 41° |
| 2026-04-22 16:38 | -7.86273 | 177.63883 | 36882 ft | 500 kts | 41° |
| 2026-04-22 16:38 | -7.80913 | 177.68337 | 36883 ft | 500 kts | 41° |
| 2026-04-22 16:39 | -7.75544 | 177.72796 | 36880 ft | 500 kts | 41° |
| 2026-04-22 16:39 | -7.70176 | 177.77256 | 36884 ft | 501 kts | 41° |
| 2026-04-22 16:40 | -7.64835 | 177.81691 | 36882 ft | 501 kts | 41° |
| 2026-04-22 16:41 | -7.56772 | 177.88384 | 36880 ft | 501 kts | 40° |
| 2026-04-22 16:41 | -7.51395 | 177.92846 | 36883 ft | 501 kts | 40° |
| 2026-04-22 16:42 | -7.46017 | 177.97308 | 36884 ft | 501 kts | 40° |
| 2026-04-22 16:42 | -7.40676 | 178.01736 | 36885 ft | 501 kts | 40° |
| 2026-04-22 16:43 | -7.35299 | 178.06194 | 36887 ft | 501 kts | 40° |
| 2026-04-22 16:43 | -7.29921 | 178.10651 | 36887 ft | 501 kts | 40° |
| 2026-04-22 16:44 | -7.24535 | 178.15113 | 36884 ft | 501 kts | 40° |
| 2026-04-22 16:44 | -7.19185 | 178.19543 | 36888 ft | 501 kts | 40° |
| 2026-04-22 16:45 | -7.13796 | 178.24005 | 36887 ft | 501 kts | 40° |
| 2026-04-22 16:45 | -7.08407 | 178.28465 | 36887 ft | 501 kts | 40° |
| 2026-04-22 16:46 | -7.03019 | 178.32923 | 36889 ft | 501 kts | 40° |
| 2026-04-22 16:46 | -6.97663 | 178.37353 | 36882 ft | 501 kts | 40° |
| 2026-04-22 16:47 | -6.92275 | 178.41808 | 36881 ft | 501 kts | 40° |
| 2026-04-22 16:47 | -6.86884 | 178.46265 | 36883 ft | 501 kts | 40° |
| 2026-04-22 16:48 | -6.81492 | 178.50721 | 36884 ft | 501 kts | 41° |
| 2026-04-22 16:48 | -6.76155 | 178.55130 | 36880 ft | 499 kts | 41° |
| 2026-04-22 16:49 | -6.70788 | 178.59563 | 36881 ft | 499 kts | 41° |
| 2026-04-22 16:49 | -6.65415 | 178.63998 | 36881 ft | 499 kts | 41° |
| 2026-04-22 16:50 | -6.60048 | 178.68429 | 36880 ft | 499 kts | 41° |
| 2026-04-22 16:50 | -6.54678 | 178.72860 | 36885 ft | 499 kts | 41° |
| 2026-04-22 16:51 | -6.49346 | 178.77258 | 36884 ft | 499 kts | 41° |
| 2026-04-22 16:51 | -6.43977 | 178.81686 | 36886 ft | 499 kts | 41° |
| 2026-04-22 16:52 | -6.38619 | 178.86103 | 36885 ft | 497 kts | 41° |
| 2026-04-22 16:52 | -6.33260 | 178.90520 | 36880 ft | 499 kts | 41° |
| 2026-04-22 16:53 | -6.27932 | 178.94911 | 36883 ft | 499 kts | 41° |
| 2026-04-22 16:53 | -6.22566 | 178.99332 | 36886 ft | 499 kts | 41° |
| 2026-04-22 16:54 | -6.17193 | 179.03756 | 36877 ft | 499 kts | 41° |
| 2026-04-22 16:54 | -6.11826 | 179.08176 | 36880 ft | 499 kts | 41° |
| 2026-04-22 16:55 | -6.06492 | 179.12565 | 36879 ft | 499 kts | 41° |
| 2026-04-22 16:55 | -6.01132 | 179.16976 | 36877 ft | 498 kts | 41° |
| 2026-04-22 16:56 | -5.95774 | 179.21384 | 36881 ft | 498 kts | 41° |
| 2026-04-22 16:56 | -5.90412 | 179.25794 | 36883 ft | 498 kts | 41° |
| 2026-04-22 16:57 | -5.85083 | 179.30176 | 36883 ft | 499 kts | 41° |
| 2026-04-22 16:57 | -5.79713 | 179.34590 | 36883 ft | 499 kts | 41° |
| 2026-04-22 16:58 | -5.75253 | 179.38256 | 36877 ft | 499 kts | 41° |
| 2026-04-22 16:58 | -5.68976 | 179.43413 | 36878 ft | 499 kts | 41° |
| 2026-04-22 16:59 | -5.63600 | 179.47829 | 36875 ft | 499 kts | 41° |
| 2026-04-22 16:59 | -5.58259 | 179.52215 | 36876 ft | 499 kts | 41° |
| 2026-04-22 17:00 | -5.52880 | 179.56632 | 36878 ft | 499 kts | 41° |
| 2026-04-22 17:00 | -5.44812 | 179.63253 | 36881 ft | 499 kts | 41° |
| 2026-04-22 17:01 | -5.39473 | 179.67634 | 36876 ft | 499 kts | 41° |
| 2026-04-22 17:01 | -5.34099 | 179.72043 | 36875 ft | 499 kts | 41° |
| 2026-04-22 17:02 | -5.28722 | 179.76453 | 36875 ft | 500 kts | 41° |
| 2026-04-22 17:02 | -5.23332 | 179.80872 | 36862 ft | 501 kts | 41° |
| 2026-04-22 17:03 | -5.17938 | 179.85294 | 36871 ft | 501 kts | 41° |
| 2026-04-22 17:03 | -5.12577 | 179.89687 | 36874 ft | 501 kts | 41° |
| 2026-04-22 17:04 | -5.07182 | 179.94108 | 36870 ft | 501 kts | 41° |
| 2026-04-22 17:04 | -5.01785 | 179.98530 | 36873 ft | 501 kts | 41° |
| 2026-04-22 17:05 | -4.96321 | -179.97139 | 36870 ft | 501 kts | 38° |
| 2026-04-22 17:05 | -4.90670 | -179.93141 | 36871 ft | 500 kts | 36° |
| 2026-04-22 17:06 | -4.84961 | -179.89151 | 36876 ft | 500 kts | 37° |
| 2026-04-22 17:06 | -4.79283 | -179.85115 | 36874 ft | 500 kts | 37° |
| 2026-04-22 17:07 | -4.73630 | -179.81056 | 36872 ft | 500 kts | 37° |
| 2026-04-22 17:07 | -4.68019 | -179.77018 | 36874 ft | 500 kts | 37° |
| 2026-04-22 17:08 | -4.62366 | -179.72954 | 36871 ft | 500 kts | 37° |
| 2026-04-22 17:08 | -4.56712 | -179.68892 | 36875 ft | 500 kts | 37° |
| 2026-04-22 17:09 | -4.51057 | -179.64830 | 36875 ft | 500 kts | 37° |
| 2026-04-22 17:09 | -4.45433 | -179.60793 | 36871 ft | 500 kts | 37° |
| 2026-04-22 17:10 | -4.39774 | -179.56730 | 36872 ft | 500 kts | 37° |
| 2026-04-22 17:10 | -4.34116 | -179.52668 | 36874 ft | 500 kts | 37° |
| 2026-04-22 17:11 | -4.28458 | -179.48608 | 36869 ft | 500 kts | 37° |
| 2026-04-22 17:11 | -4.22836 | -179.44574 | 36874 ft | 500 kts | 37° |
| 2026-04-22 17:12 | -4.17175 | -179.40513 | 36874 ft | 500 kts | 37° |
| 2026-04-22 17:12 | -4.11523 | -179.36459 | 36871 ft | 500 kts | 37° |
| 2026-04-22 17:13 | -4.05866 | -179.32403 | 36872 ft | 500 kts | 37° |
| 2026-04-22 17:13 | -4.00213 | -179.28349 | 36871 ft | 500 kts | 37° |
| 2026-04-22 17:14 | -3.94601 | -179.24326 | 36879 ft | 500 kts | 37° |
| 2026-04-22 17:14 | -3.88948 | -179.20274 | 36877 ft | 499 kts | 37° |
| 2026-04-22 17:15 | -3.83299 | -179.16226 | 36879 ft | 499 kts | 37° |
| 2026-04-22 17:15 | -3.77689 | -179.12206 | 36877 ft | 499 kts | 37° |
| 2026-04-22 17:16 | -3.72042 | -179.08161 | 36876 ft | 499 kts | 37° |
| 2026-04-22 17:16 | -3.66393 | -179.04115 | 36877 ft | 499 kts | 37° |
| 2026-04-22 17:17 | -3.60744 | -179.00069 | 36878 ft | 499 kts | 37° |
| 2026-04-22 17:17 | -3.55097 | -178.96026 | 36879 ft | 499 kts | 37° |
| 2026-04-22 17:18 | -3.49488 | -178.92009 | 36877 ft | 499 kts | 37° |
| 2026-04-22 17:18 | -3.43838 | -178.87965 | 36879 ft | 499 kts | 37° |
| 2026-04-22 17:19 | -3.32558 | -178.79887 | 36885 ft | 498 kts | 37° |
| 2026-04-22 17:20 | -3.21334 | -178.71860 | 36882 ft | 497 kts | 37° |
| 2026-04-22 17:21 | -3.12888 | -178.65821 | 36880 ft | 497 kts | 37° |
| 2026-04-22 17:22 | -3.04444 | -178.59782 | 36881 ft | 497 kts | 37° |
| 2026-04-22 17:23 | -2.96031 | -178.53766 | 36881 ft | 498 kts | 37° |
| 2026-04-22 17:23 | -2.87575 | -178.47721 | 36882 ft | 498 kts | 37° |
| 2026-04-22 17:24 | -2.81944 | -178.43696 | 36880 ft | 497 kts | 37° |
| 2026-04-22 17:24 | -2.76356 | -178.39703 | 36883 ft | 497 kts | 37° |
| 2026-04-22 17:25 | -2.70731 | -178.35683 | 36884 ft | 497 kts | 37° |
| 2026-04-22 17:25 | -2.65109 | -178.31666 | 36886 ft | 497 kts | 37° |
| 2026-04-22 17:26 | -2.59514 | -178.27673 | 36885 ft | 498 kts | 37° |
| 2026-04-22 17:26 | -2.53872 | -178.23641 | 36887 ft | 498 kts | 37° |
| 2026-04-22 17:27 | -2.48231 | -178.19610 | 36880 ft | 498 kts | 37° |
| 2026-04-22 17:27 | -2.42593 | -178.15583 | 36887 ft | 498 kts | 37° |
| 2026-04-22 17:28 | -2.36948 | -178.11551 | 36887 ft | 498 kts | 37° |
| 2026-04-22 17:28 | -2.31345 | -178.07550 | 36887 ft | 498 kts | 37° |
| 2026-04-22 17:29 | -2.25709 | -178.03527 | 36885 ft | 498 kts | 37° |
| 2026-04-22 17:29 | -2.20073 | -177.99503 | 36885 ft | 498 kts | 37° |
| 2026-04-22 17:30 | -2.14431 | -177.95475 | 36887 ft | 498 kts | 37° |
| 2026-04-22 17:30 | -2.08824 | -177.91473 | 36887 ft | 498 kts | 37° |
| 2026-04-22 17:31 | -2.03184 | -177.87448 | 36888 ft | 498 kts | 37° |
| 2026-04-22 17:31 | -1.97543 | -177.83423 | 36884 ft | 498 kts | 37° |
| 2026-04-22 17:32 | -1.91902 | -177.79397 | 36889 ft | 498 kts | 37° |
| 2026-04-22 17:32 | -1.86298 | -177.75401 | 36888 ft | 499 kts | 37° |
| 2026-04-22 17:33 | -1.80641 | -177.71367 | 36887 ft | 500 kts | 37° |
| 2026-04-22 17:33 | -1.74987 | -177.67332 | 36889 ft | 498 kts | 37° |
| 2026-04-22 17:34 | -1.69354 | -177.63314 | 36886 ft | 497 kts | 37° |
| 2026-04-22 17:34 | -1.63726 | -177.59297 | 36886 ft | 497 kts | 37° |
| 2026-04-22 17:35 | -1.58135 | -177.55308 | 36887 ft | 497 kts | 37° |
| 2026-04-22 17:35 | -1.52506 | -177.51293 | 36887 ft | 497 kts | 37° |
| 2026-04-22 17:36 | -1.46869 | -177.47271 | 36889 ft | 499 kts | 37° |
| 2026-04-22 17:36 | -1.41254 | -177.43266 | 36889 ft | 500 kts | 37° |
| 2026-04-22 17:37 | -1.35594 | -177.39232 | 36890 ft | 500 kts | 37° |
| 2026-04-22 17:37 | -1.29934 | -177.35197 | 36888 ft | 499 kts | 37° |
| 2026-04-22 17:38 | -1.24278 | -177.31165 | 36890 ft | 499 kts | 37° |
| 2026-04-22 17:38 | -1.18634 | -177.27141 | 36884 ft | 498 kts | 37° |
| 2026-04-22 17:39 | -1.13028 | -177.23144 | 36886 ft | 498 kts | 37° |
| 2026-04-22 17:40 | -1.04557 | -177.17105 | 36889 ft | 499 kts | 37° |
| 2026-04-22 17:40 | -0.98904 | -177.13076 | 36888 ft | 499 kts | 37° |
| 2026-04-22 17:41 | -0.93252 | -177.09047 | 36891 ft | 499 kts | 37° |
| 2026-04-22 17:41 | -0.87639 | -177.05046 | 36888 ft | 499 kts | 37° |
| 2026-04-22 17:42 | -0.81986 | -177.01017 | 36890 ft | 499 kts | 37° |
| 2026-04-22 17:42 | -0.77294 | -176.97673 | 36890 ft | 499 kts | 37° |
| 2026-04-22 17:43 | -0.70675 | -176.92961 | 36890 ft | 500 kts | 36° |
| 2026-04-22 17:43 | -0.65012 | -176.88924 | 36889 ft | 500 kts | 36° |
| 2026-04-22 17:44 | -0.59384 | -176.84910 | 36890 ft | 500 kts | 36° |
| 2026-04-22 17:44 | -0.53720 | -176.80872 | 36889 ft | 500 kts | 36° |
| 2026-04-22 17:45 | -0.48059 | -176.76838 | 36887 ft | 500 kts | 36° |
| 2026-04-22 17:45 | -0.42433 | -176.72829 | 36889 ft | 500 kts | 37° |
| 2026-04-22 17:46 | -0.36771 | -176.68794 | 36890 ft | 500 kts | 36° |
| 2026-04-22 17:46 | -0.31107 | -176.64757 | 36890 ft | 500 kts | 36° |
| 2026-04-22 17:47 | -0.25448 | -176.60726 | 36889 ft | 500 kts | 36° |
| 2026-04-22 17:47 | -0.19787 | -176.56692 | 36890 ft | 500 kts | 36° |
| 2026-04-22 17:48 | -0.15083 | -176.53340 | 36893 ft | 500 kts | 35° |
| 2026-04-22 17:48 | -0.08509 | -176.48656 | 36892 ft | 499 kts | 35° |
| 2026-04-22 17:49 | -0.02849 | -176.44623 | 36894 ft | 499 kts | 35° |
| 2026-04-22 17:49 | 0.02807 | -176.40592 | 36892 ft | 500 kts | 34° |
| 2026-04-22 17:50 | 0.08432 | -176.36577 | 36892 ft | 501 kts | 35° |
| 2026-04-22 17:50 | 0.14108 | -176.32537 | 36895 ft | 501 kts | 35° |
| 2026-04-22 17:51 | 0.19787 | -176.28494 | 36896 ft | 501 kts | 35° |
| 2026-04-22 17:51 | 0.25463 | -176.24450 | 36892 ft | 501 kts | 35° |
| 2026-04-22 17:52 | 0.31101 | -176.20431 | 36889 ft | 501 kts | 35° |
| 2026-04-22 17:52 | 0.36776 | -176.16387 | 36892 ft | 501 kts | 34° |
| 2026-04-22 17:53 | 0.42446 | -176.12347 | 36895 ft | 501 kts | 34° |
| 2026-04-22 17:53 | 0.48086 | -176.08328 | 36894 ft | 501 kts | 35° |
| 2026-04-22 17:54 | 0.53756 | -176.04287 | 36894 ft | 501 kts | 35° |
| 2026-04-22 17:54 | 0.59429 | -176.00245 | 36893 ft | 501 kts | 34° |
| 2026-04-22 17:55 | 0.64144 | -175.96884 | 36896 ft | 501 kts | 34° |
| 2026-04-22 17:55 | 0.70777 | -175.92157 | 36896 ft | 501 kts | 34° |
| 2026-04-22 17:56 | 0.76412 | -175.88141 | 36895 ft | 501 kts | 34° |
| 2026-04-22 17:56 | 0.82088 | -175.84096 | 36896 ft | 501 kts | 34° |
| 2026-04-22 17:57 | 0.87763 | -175.80051 | 36897 ft | 501 kts | 34° |
| 2026-04-22 17:57 | 0.93441 | -175.76004 | 36896 ft | 501 kts | 34° |
| 2026-04-22 17:58 | 0.99078 | -175.71986 | 36897 ft | 501 kts | 34° |
| 2026-04-22 17:58 | 1.04751 | -175.67942 | 36897 ft | 501 kts | 34° |
| 2026-04-22 17:59 | 1.10427 | -175.63895 | 36899 ft | 501 kts | 34° |
| 2026-04-22 17:59 | 1.16105 | -175.59848 | 36898 ft | 501 kts | 34° |
| 2026-04-22 18:00 | 1.20816 | -175.56489 | 36903 ft | 501 kts | 34° |
| 2026-04-22 18:00 | 1.27406 | -175.51790 | 36906 ft | 501 kts | 34° |
| 2026-04-22 18:01 | 1.33073 | -175.47750 | 36905 ft | 501 kts | 34° |
| 2026-04-22 18:01 | 1.38742 | -175.43707 | 36903 ft | 500 kts | 34° |
| 2026-04-22 18:02 | 1.44372 | -175.39692 | 36903 ft | 500 kts | 34° |
| 2026-04-22 18:02 | 1.50032 | -175.35657 | 36903 ft | 500 kts | 34° |
| 2026-04-22 18:03 | 1.55689 | -175.31622 | 36908 ft | 499 kts | 34° |
| 2026-04-22 18:03 | 1.61338 | -175.27593 | 36909 ft | 499 kts | 34° |
| 2026-04-22 18:04 | 1.66943 | -175.23594 | 36906 ft | 499 kts | 34° |
| 2026-04-22 18:04 | 1.72589 | -175.19567 | 36906 ft | 499 kts | 34° |
| 2026-04-22 18:05 | 1.78236 | -175.15539 | 36906 ft | 499 kts | 34° |
| 2026-04-22 18:05 | 1.83881 | -175.11512 | 36909 ft | 499 kts | 34° |
| 2026-04-22 18:06 | 1.89488 | -175.07511 | 36911 ft | 499 kts | 34° |
| 2026-04-22 18:06 | 1.95129 | -175.03486 | 36911 ft | 497 kts | 34° |
| 2026-04-22 18:07 | 1.99732 | -175.00063 | 36911 ft | 497 kts | 39° |
| 2026-04-22 18:07 | 2.05597 | -174.94513 | 36911 ft | 497 kts | 43° |
| 2026-04-22 18:08 | 2.10473 | -174.89669 | 36909 ft | 497 kts | 43° |
| 2026-04-22 18:08 | 2.15372 | -174.84779 | 36911 ft | 497 kts | 43° |
| 2026-04-22 18:09 | 2.20278 | -174.79898 | 36912 ft | 497 kts | 43° |
| 2026-04-22 18:09 | 2.25187 | -174.75027 | 36911 ft | 497 kts | 43° |
| 2026-04-22 18:10 | 2.30066 | -174.70187 | 36911 ft | 498 kts | 43° |
| 2026-04-22 18:10 | 2.34984 | -174.65307 | 36912 ft | 498 kts | 43° |
| 2026-04-22 18:11 | 2.39892 | -174.60437 | 36911 ft | 497 kts | 43° |
| 2026-04-22 18:11 | 2.44796 | -174.55570 | 36911 ft | 496 kts | 43° |
| 2026-04-22 18:12 | 2.49667 | -174.50736 | 36911 ft | 496 kts | 43° |
| 2026-04-22 18:12 | 2.53773 | -174.46659 | 36911 ft | 496 kts | 43° |
| 2026-04-22 18:13 | 2.59468 | -174.41005 | 36911 ft | 496 kts | 43° |
| 2026-04-22 18:13 | 2.64369 | -174.36139 | 36908 ft | 496 kts | 43° |
| 2026-04-22 18:14 | 2.69239 | -174.31302 | 36909 ft | 497 kts | 43° |
| 2026-04-22 18:14 | 2.74155 | -174.26420 | 36908 ft | 498 kts | 43° |
| 2026-04-22 18:15 | 2.79059 | -174.21549 | 36910 ft | 497 kts | 43° |
| 2026-04-22 18:15 | 2.83961 | -174.16680 | 36911 ft | 497 kts | 43° |
| 2026-04-22 18:16 | 2.88831 | -174.11841 | 36908 ft | 497 kts | 43° |
| 2026-04-22 18:16 | 2.93734 | -174.06969 | 36908 ft | 497 kts | 43° |
| 2026-04-22 18:17 | 2.98635 | -174.02098 | 36906 ft | 497 kts | 43° |
| 2026-04-22 18:17 | 3.03535 | -173.97228 | 36905 ft | 497 kts | 43° |
| 2026-04-22 18:18 | 3.08410 | -173.92386 | 36912 ft | 498 kts | 43° |
| 2026-04-22 18:18 | 3.13328 | -173.87492 | 36911 ft | 499 kts | 43° |
| 2026-04-22 18:19 | 3.18248 | -173.82599 | 36908 ft | 499 kts | 43° |
| 2026-04-22 18:19 | 3.23166 | -173.77709 | 36911 ft | 499 kts | 43° |
| 2026-04-22 18:20 | 3.28085 | -173.72816 | 36912 ft | 499 kts | 43° |
| 2026-04-22 18:20 | 3.32972 | -173.67955 | 36911 ft | 499 kts | 43° |
| 2026-04-22 18:21 | 3.37890 | -173.63062 | 36913 ft | 499 kts | 43° |
| 2026-04-22 18:21 | 3.42807 | -173.58169 | 36913 ft | 498 kts | 44° |
| 2026-04-22 18:22 | 3.47720 | -173.53280 | 36915 ft | 498 kts | 44° |
| 2026-04-22 18:22 | 3.52597 | -173.48425 | 36914 ft | 498 kts | 44° |
| 2026-04-22 18:23 | 3.57502 | -173.43542 | 36913 ft | 497 kts | 44° |
| 2026-04-22 18:23 | 3.62410 | -173.38655 | 36913 ft | 498 kts | 44° |
| 2026-04-22 18:24 | 3.69771 | -173.31324 | 36914 ft | 497 kts | 44° |
| 2026-04-22 18:25 | 3.77098 | -173.24026 | 36916 ft | 497 kts | 44° |
| 2026-04-22 18:25 | 3.82003 | -173.19138 | 36917 ft | 498 kts | 44° |
| 2026-04-22 18:26 | 3.89344 | -173.11823 | 36914 ft | 498 kts | 44° |
| 2026-04-22 18:26 | 3.94256 | -173.06927 | 36913 ft | 498 kts | 44° |
| 2026-04-22 18:27 | 3.99168 | -173.02029 | 36914 ft | 498 kts | 44° |
| 2026-04-22 18:27 | 4.04078 | -172.97134 | 36914 ft | 498 kts | 44° |
| 2026-04-22 18:28 | 4.08988 | -172.92237 | 36916 ft | 498 kts | 44° |
| 2026-04-22 18:28 | 4.13862 | -172.87375 | 36917 ft | 498 kts | 44° |
| 2026-04-22 18:29 | 4.18774 | -172.82474 | 36916 ft | 498 kts | 44° |
| 2026-04-22 18:29 | 4.23682 | -172.77577 | 36924 ft | 498 kts | 44° |
| 2026-04-22 18:30 | 4.31002 | -172.70271 | 36919 ft | 497 kts | 44° |
| 2026-04-22 18:31 | 4.35897 | -172.65383 | 36920 ft | 497 kts | 44° |
| 2026-04-22 18:31 | 4.40795 | -172.60493 | 36919 ft | 497 kts | 44° |
| 2026-04-22 18:32 | 4.44863 | -172.56430 | 36919 ft | 497 kts | 44° |
| 2026-04-22 18:32 | 4.50583 | -172.50716 | 36919 ft | 497 kts | 44° |
| 2026-04-22 18:33 | 4.55441 | -172.45862 | 36921 ft | 497 kts | 44° |
| 2026-04-22 18:33 | 4.60329 | -172.40977 | 36922 ft | 496 kts | 44° |
| 2026-04-22 18:34 | 4.65217 | -172.36090 | 36919 ft | 495 kts | 44° |
| 2026-04-22 18:34 | 4.70094 | -172.31219 | 36919 ft | 495 kts | 44° |
| 2026-04-22 18:35 | 4.74937 | -172.26375 | 36923 ft | 495 kts | 44° |
| 2026-04-22 18:35 | 4.79808 | -172.21501 | 36922 ft | 495 kts | 44° |
| 2026-04-22 18:36 | 4.84684 | -172.16622 | 36924 ft | 495 kts | 44° |
| 2026-04-22 18:36 | 4.89552 | -172.11751 | 36924 ft | 495 kts | 44° |
| 2026-04-22 18:37 | 4.93606 | -172.07695 | 36924 ft | 496 kts | 44° |
| 2026-04-22 18:37 | 4.98006 | -172.03289 | 36925 ft | 498 kts | 44° |
| 2026-04-22 18:38 | 5.03733 | -171.97555 | 36925 ft | 498 kts | 44° |
| 2026-04-22 18:38 | 5.08634 | -171.92648 | 36924 ft | 498 kts | 44° |
| 2026-04-22 18:39 | 5.15951 | -171.85318 | 36928 ft | 498 kts | 44° |
| 2026-04-22 18:39 | 5.20852 | -171.80407 | 36928 ft | 498 kts | 44° |
| 2026-04-22 18:40 | 5.25749 | -171.75499 | 36927 ft | 498 kts | 44° |
| 2026-04-22 18:40 | 5.30652 | -171.70586 | 36929 ft | 499 kts | 44° |
| 2026-04-22 18:41 | 5.35541 | -171.65684 | 36927 ft | 501 kts | 44° |
| 2026-04-22 18:41 | 5.40473 | -171.60738 | 36927 ft | 500 kts | 44° |
| 2026-04-22 18:42 | 5.45389 | -171.55801 | 36925 ft | 500 kts | 44° |
| 2026-04-22 18:42 | 5.49476 | -171.51699 | 36925 ft | 500 kts | 44° |
| 2026-04-22 18:43 | 5.55192 | -171.45963 | 36930 ft | 500 kts | 44° |
| 2026-04-22 18:43 | 5.60106 | -171.41031 | 36930 ft | 500 kts | 44° |
| 2026-04-22 18:44 | 5.64193 | -171.36926 | 36927 ft | 500 kts | 44° |
| 2026-04-22 18:44 | 5.69107 | -171.31990 | 36927 ft | 500 kts | 43° |
| 2026-04-22 18:45 | 5.74029 | -171.27044 | 36930 ft | 500 kts | 43° |
| 2026-04-22 18:45 | 5.78939 | -171.22108 | 36930 ft | 499 kts | 43° |
| 2026-04-22 18:46 | 5.83844 | -171.17178 | 36930 ft | 499 kts | 43° |
| 2026-04-22 18:46 | 5.88713 | -171.12284 | 36931 ft | 498 kts | 43° |
| 2026-04-22 18:47 | 5.93611 | -171.07357 | 36932 ft | 499 kts | 43° |
| 2026-04-22 18:47 | 5.98512 | -171.02427 | 36931 ft | 499 kts | 43° |
| 2026-04-22 18:48 | 6.03415 | -170.97495 | 36933 ft | 498 kts | 44° |
| 2026-04-22 18:48 | 6.08250 | -170.92627 | 36933 ft | 494 kts | 44° |
| 2026-04-22 18:49 | 6.13093 | -170.87748 | 36936 ft | 492 kts | 44° |
| 2026-04-22 18:49 | 6.17921 | -170.82882 | 36936 ft | 491 kts | 44° |
| 2026-04-22 18:50 | 6.22739 | -170.78032 | 36936 ft | 490 kts | 44° |
| 2026-04-22 18:50 | 6.27526 | -170.73211 | 36941 ft | 490 kts | 44° |
| 2026-04-22 18:51 | 6.32345 | -170.68354 | 36945 ft | 491 kts | 44° |
| 2026-04-22 18:51 | 6.37165 | -170.63495 | 36944 ft | 491 kts | 44° |
| 2026-04-22 18:52 | 6.41989 | -170.58629 | 36945 ft | 493 kts | 45° |
| 2026-04-22 18:52 | 6.46816 | -170.53759 | 36948 ft | 495 kts | 45° |
| 2026-04-22 18:53 | 6.51686 | -170.48845 | 36947 ft | 497 kts | 45° |
| 2026-04-22 18:53 | 6.56574 | -170.43911 | 36947 ft | 498 kts | 45° |
| 2026-04-22 18:54 | 6.61459 | -170.38979 | 36946 ft | 498 kts | 45° |
| 2026-04-22 18:54 | 6.66347 | -170.34042 | 36947 ft | 498 kts | 45° |
| 2026-04-22 18:55 | 6.71204 | -170.29135 | 36949 ft | 498 kts | 45° |
| 2026-04-22 18:55 | 6.76087 | -170.24200 | 36952 ft | 498 kts | 45° |
| 2026-04-22 18:56 | 6.80995 | -170.19241 | 36949 ft | 501 kts | 45° |
| 2026-04-22 18:56 | 6.85882 | -170.14303 | 36951 ft | 502 kts | 45° |
| 2026-04-22 18:57 | 6.90812 | -170.09324 | 36951 ft | 502 kts | 45° |
| 2026-04-22 18:57 | 6.95740 | -170.04330 | 36952 ft | 503 kts | 45° |
| 2026-04-22 18:58 | 7.00563 | -169.99237 | 36956 ft | 503 kts | 49° |
| 2026-04-22 18:58 | 7.05055 | -169.93837 | 36954 ft | 503 kts | 50° |
| 2026-04-22 18:59 | 7.09454 | -169.88431 | 36956 ft | 503 kts | 50° |
| 2026-04-22 18:59 | 7.13885 | -169.82970 | 36961 ft | 505 kts | 51° |
| 2026-04-22 19:00 | 7.18344 | -169.77480 | 36959 ft | 507 kts | 50° |
| 2026-04-22 19:00 | 7.22818 | -169.71975 | 36961 ft | 507 kts | 50° |
| 2026-04-22 19:01 | 7.27258 | -169.66514 | 36958 ft | 507 kts | 50° |
| 2026-04-22 19:01 | 7.31728 | -169.61014 | 36956 ft | 507 kts | 50° |
| 2026-04-22 19:02 | 7.36193 | -169.55519 | 36961 ft | 507 kts | 50° |
| 2026-04-22 19:02 | 7.40662 | -169.50016 | 36960 ft | 507 kts | 50° |
| 2026-04-22 19:03 | 7.45097 | -169.44553 | 36962 ft | 507 kts | 50° |
| 2026-04-22 19:03 | 7.49563 | -169.39049 | 36965 ft | 508 kts | 50° |
| 2026-04-22 19:04 | 7.54039 | -169.33527 | 36960 ft | 510 kts | 50° |
| 2026-04-22 19:04 | 7.58529 | -169.27992 | 36960 ft | 510 kts | 50° |
| 2026-04-22 19:05 | 7.62987 | -169.22496 | 36960 ft | 510 kts | 50° |
| 2026-04-22 19:05 | 7.67475 | -169.16959 | 36960 ft | 510 kts | 50° |
| 2026-04-22 19:06 | 7.71964 | -169.11419 | 36965 ft | 510 kts | 50° |
| 2026-04-22 19:07 | 7.78658 | -169.03151 | 36967 ft | 510 kts | 50° |
| 2026-04-22 19:07 | 7.83152 | -168.97599 | 36966 ft | 511 kts | 50° |
| 2026-04-22 19:08 | 7.87646 | -168.92044 | 36964 ft | 511 kts | 50° |
| 2026-04-22 19:08 | 7.92141 | -168.86486 | 36966 ft | 511 kts | 50° |
| 2026-04-22 19:09 | 7.96604 | -168.80966 | 36965 ft | 511 kts | 50° |
| 2026-04-22 19:09 | 8.01093 | -168.75410 | 36967 ft | 511 kts | 50° |
| 2026-04-22 19:10 | 8.05586 | -168.69849 | 36969 ft | 511 kts | 50° |
| 2026-04-22 19:10 | 8.10075 | -168.64289 | 36969 ft | 511 kts | 50° |
| 2026-04-22 19:11 | 8.14567 | -168.58724 | 36967 ft | 512 kts | 50° |
| 2026-04-22 19:11 | 8.19028 | -168.53194 | 36971 ft | 512 kts | 49° |
| 2026-04-22 19:12 | 8.23526 | -168.47615 | 36969 ft | 513 kts | 49° |
| 2026-04-22 19:12 | 8.28032 | -168.42025 | 36969 ft | 513 kts | 49° |
| 2026-04-22 19:13 | 8.32538 | -168.36436 | 36969 ft | 513 kts | 49° |
| 2026-04-22 19:13 | 8.37009 | -168.30887 | 36969 ft | 513 kts | 49° |
| 2026-04-22 19:14 | 8.41512 | -168.25296 | 36968 ft | 513 kts | 49° |
| 2026-04-22 19:14 | 8.46014 | -168.19703 | 36969 ft | 513 kts | 49° |
| 2026-04-22 19:15 | 8.50513 | -168.14111 | 36974 ft | 513 kts | 49° |
| 2026-04-22 19:15 | 8.54981 | -168.08554 | 36974 ft | 513 kts | 49° |
| 2026-04-22 19:16 | 8.59486 | -168.02952 | 36975 ft | 514 kts | 49° |
| 2026-04-22 19:16 | 8.63995 | -167.97340 | 36974 ft | 514 kts | 49° |
| 2026-04-22 19:17 | 8.68501 | -167.91730 | 36974 ft | 514 kts | 49° |
| 2026-04-22 19:17 | 8.72979 | -167.86153 | 36974 ft | 514 kts | 49° |
| 2026-04-22 19:18 | 8.77482 | -167.80542 | 36977 ft | 514 kts | 49° |
| 2026-04-22 19:18 | 8.81988 | -167.74925 | 36977 ft | 514 kts | 49° |
| 2026-04-22 19:19 | 8.86491 | -167.69310 | 36977 ft | 514 kts | 49° |
| 2026-04-22 19:19 | 8.90995 | -167.63690 | 36981 ft | 515 kts | 49° |
| 2026-04-22 19:20 | 8.95481 | -167.58092 | 36977 ft | 516 kts | 49° |
| 2026-04-22 19:20 | 9.00001 | -167.52448 | 36981 ft | 516 kts | 49° |
| 2026-04-22 19:21 | 9.04522 | -167.46800 | 36976 ft | 517 kts | 49° |
| 2026-04-22 19:21 | 9.09043 | -167.41150 | 36977 ft | 517 kts | 49° |
| 2026-04-22 19:22 | 9.13535 | -167.35534 | 36978 ft | 517 kts | 49° |
| 2026-04-22 19:22 | 9.18051 | -167.29885 | 36976 ft | 517 kts | 49° |
| 2026-04-22 19:23 | 9.22571 | -167.24227 | 36982 ft | 517 kts | 49° |
| 2026-04-22 19:23 | 9.27059 | -167.18608 | 36980 ft | 518 kts | 48° |
| 2026-04-22 19:24 | 9.31592 | -167.12931 | 36979 ft | 518 kts | 48° |
| 2026-04-22 19:24 | 9.36122 | -167.07255 | 36978 ft | 518 kts | 48° |
| 2026-04-22 19:25 | 9.40655 | -167.01571 | 36974 ft | 518 kts | 48° |
| 2026-04-22 19:25 | 9.45187 | -166.95887 | 36984 ft | 518 kts | 48° |
| 2026-04-22 19:26 | 9.49684 | -166.90243 | 36976 ft | 518 kts | 48° |
| 2026-04-22 19:26 | 9.54211 | -166.84558 | 36979 ft | 518 kts | 48° |
| 2026-04-22 19:27 | 9.58741 | -166.78869 | 36984 ft | 519 kts | 48° |
| 2026-04-22 19:27 | 9.63276 | -166.73170 | 36977 ft | 520 kts | 48° |
| 2026-04-22 19:28 | 9.67786 | -166.67500 | 36979 ft | 520 kts | 48° |
| 2026-04-22 19:28 | 9.72327 | -166.61788 | 36983 ft | 520 kts | 48° |
| 2026-04-22 19:29 | 9.76863 | -166.56079 | 36981 ft | 520 kts | 48° |
| 2026-04-22 19:29 | 9.81401 | -166.50366 | 36986 ft | 520 kts | 48° |
| 2026-04-22 19:30 | 9.85170 | -166.45619 | 36988 ft | 520 kts | 48° |
| 2026-04-22 19:30 | 9.90437 | -166.38980 | 36987 ft | 520 kts | 48° |
| 2026-04-22 19:31 | 9.94975 | -166.33259 | 36985 ft | 521 kts | 48° |
| 2026-04-22 19:31 | 9.99521 | -166.27525 | 36985 ft | 522 kts | 48° |
| 2026-04-22 19:32 | 10.04073 | -166.21780 | 36986 ft | 522 kts | 48° |
| 2026-04-22 19:32 | 10.08593 | -166.16071 | 36987 ft | 522 kts | 48° |
| 2026-04-22 19:33 | 10.13143 | -166.10323 | 36988 ft | 522 kts | 47° |
| 2026-04-22 19:33 | 10.17680 | -166.04586 | 36989 ft | 521 kts | 47° |
| 2026-04-22 19:34 | 10.22220 | -165.98845 | 36985 ft | 521 kts | 48° |
| 2026-04-22 19:34 | 10.26727 | -165.93143 | 36988 ft | 521 kts | 47° |
| 2026-04-22 19:35 | 10.31274 | -165.87387 | 36988 ft | 524 kts | 47° |
| 2026-04-22 19:35 | 10.35832 | -165.81615 | 36989 ft | 524 kts | 47° |
| 2026-04-22 19:36 | 10.40395 | -165.75831 | 36991 ft | 524 kts | 47° |
| 2026-04-22 19:36 | 10.44919 | -165.70095 | 36989 ft | 524 kts | 47° |
| 2026-04-22 19:37 | 10.49474 | -165.64316 | 36991 ft | 524 kts | 47° |
| 2026-04-22 19:37 | 10.54031 | -165.58532 | 36995 ft | 524 kts | 47° |
| 2026-04-22 19:38 | 10.58585 | -165.52749 | 36992 ft | 524 kts | 47° |
| 2026-04-22 19:38 | 10.63105 | -165.47007 | 36991 ft | 524 kts | 47° |
| 2026-04-22 19:39 | 10.67663 | -165.41213 | 36994 ft | 525 kts | 47° |
| 2026-04-22 19:39 | 10.72218 | -165.35419 | 36998 ft | 524 kts | 47° |
| 2026-04-22 19:40 | 10.76765 | -165.29631 | 36998 ft | 524 kts | 47° |
| 2026-04-22 19:40 | 10.81312 | -165.23841 | 36996 ft | 524 kts | 47° |
| 2026-04-22 19:41 | 10.85828 | -165.18089 | 36998 ft | 524 kts | 47° |
| 2026-04-22 19:41 | 10.90375 | -165.12292 | 36996 ft | 524 kts | 47° |
| 2026-04-22 19:42 | 10.94918 | -165.06499 | 37011 ft | 524 kts | 47° |
| 2026-04-22 19:42 | 10.99429 | -165.00680 | 37002 ft | 526 kts | 50° |
| 2026-04-22 19:42 | 11.01469 | -164.97578 | 37157 ft | 528 kts | 53° |
| 2026-04-22 19:43 | 11.05388 | -164.91316 | 37511 ft | 528 kts | 54° |
| 2026-04-22 19:43 | 11.07337 | -164.88142 | 37711 ft | 528 kts | 54° |
| 2026-04-22 19:43 | 11.09279 | -164.84968 | 37856 ft | 528 kts | 54° |
| 2026-04-22 19:44 | 11.11219 | -164.81797 | 38019 ft | 528 kts | 54° |
| 2026-04-22 19:44 | 11.13163 | -164.78621 | 38172 ft | 528 kts | 54° |
| 2026-04-22 19:44 | 11.15108 | -164.75448 | 38324 ft | 528 kts | 54° |
| 2026-04-22 19:44 | 11.17054 | -164.72277 | 38464 ft | 528 kts | 54° |
| 2026-04-22 19:45 | 11.18972 | -164.69151 | 38599 ft | 528 kts | 54° |
| 2026-04-22 19:45 | 11.20918 | -164.65981 | 38726 ft | 528 kts | 54° |
| 2026-04-22 19:45 | 11.22862 | -164.62813 | 38851 ft | 527 kts | 54° |
| 2026-04-22 19:45 | 11.24807 | -164.59644 | 38972 ft | 527 kts | 54° |
| 2026-04-22 19:46 | 11.28701 | -164.53295 | 39001 ft | 529 kts | 54° |
| 2026-04-22 19:46 | 11.32593 | -164.46941 | 39001 ft | 529 kts | 54° |
| 2026-04-22 19:47 | 11.36461 | -164.40625 | 39004 ft | 528 kts | 54° |
| 2026-04-22 19:47 | 11.40349 | -164.34271 | 39004 ft | 528 kts | 54° |
| 2026-04-22 19:48 | 11.44233 | -164.27921 | 39004 ft | 528 kts | 54° |
| 2026-04-22 19:48 | 11.48113 | -164.21572 | 39004 ft | 527 kts | 54° |
| 2026-04-22 19:49 | 11.51965 | -164.15266 | 39004 ft | 527 kts | 54° |
| 2026-04-22 19:49 | 11.55842 | -164.08915 | 39004 ft | 528 kts | 54° |
| 2026-04-22 19:50 | 11.59719 | -164.02560 | 39011 ft | 528 kts | 54° |
| 2026-04-22 19:50 | 11.63587 | -163.96214 | 39005 ft | 526 kts | 54° |
| 2026-04-22 19:51 | 11.67449 | -163.89876 | 39008 ft | 526 kts | 54° |
| 2026-04-22 19:51 | 11.71284 | -163.83577 | 39005 ft | 526 kts | 54° |
| 2026-04-22 19:52 | 11.75139 | -163.77242 | 39010 ft | 526 kts | 54° |
| 2026-04-22 19:52 | 11.78997 | -163.70898 | 39012 ft | 526 kts | 54° |
| 2026-04-22 19:53 | 11.82849 | -163.64561 | 39014 ft | 526 kts | 54° |
| 2026-04-22 19:53 | 11.86677 | -163.58257 | 39012 ft | 525 kts | 53° |
| 2026-04-22 19:54 | 11.90524 | -163.51918 | 39014 ft | 525 kts | 54° |
| 2026-04-22 19:54 | 11.94373 | -163.45573 | 39013 ft | 526 kts | 54° |
| 2026-04-22 19:55 | 11.98225 | -163.39219 | 39017 ft | 526 kts | 54° |
| 2026-04-22 19:55 | 12.02049 | -163.32904 | 39015 ft | 526 kts | 54° |
| 2026-04-22 19:56 | 12.05897 | -163.26548 | 39014 ft | 526 kts | 54° |
| 2026-04-22 19:56 | 12.09741 | -163.20193 | 39013 ft | 526 kts | 54° |
| 2026-04-22 19:57 | 12.13584 | -163.13836 | 39017 ft | 525 kts | 54° |
| 2026-04-22 19:57 | 12.17396 | -163.07527 | 39017 ft | 525 kts | 54° |
| 2026-04-22 19:58 | 12.21236 | -163.01166 | 39019 ft | 525 kts | 54° |
| 2026-04-22 19:58 | 12.25071 | -162.94811 | 39020 ft | 526 kts | 54° |
| 2026-04-22 20:00 | 12.38451 | -162.72600 | 39023 ft | 525 kts | 54° |
| 2026-04-22 20:01 | 12.42279 | -162.66236 | 39022 ft | 525 kts | 54° |
| 2026-04-22 20:01 | 12.46100 | -162.59879 | 39024 ft | 525 kts | 54° |
| 2026-04-22 20:02 | 12.49920 | -162.53518 | 39021 ft | 524 kts | 54° |
| 2026-04-22 20:02 | 12.53709 | -162.47207 | 39021 ft | 524 kts | 54° |
| 2026-04-22 20:03 | 12.57518 | -162.40857 | 39021 ft | 522 kts | 54° |
| 2026-04-22 20:03 | 12.61313 | -162.34525 | 39020 ft | 521 kts | 54° |
| 2026-04-22 20:04 | 12.65103 | -162.28199 | 39019 ft | 521 kts | 54° |
| 2026-04-22 20:04 | 12.68868 | -162.21910 | 39020 ft | 521 kts | 54° |
| 2026-04-22 20:05 | 12.72646 | -162.15594 | 39023 ft | 520 kts | 54° |
| 2026-04-22 20:05 | 12.76417 | -162.09287 | 39026 ft | 519 kts | 54° |
| 2026-04-22 20:06 | 12.80190 | -162.02971 | 39025 ft | 519 kts | 54° |
| 2026-04-22 20:06 | 12.83933 | -161.96701 | 39026 ft | 519 kts | 54° |
| 2026-04-22 20:07 | 12.87700 | -161.90386 | 39032 ft | 518 kts | 54° |
| 2026-04-22 20:07 | 12.91448 | -161.84098 | 39029 ft | 516 kts | 54° |
| 2026-04-22 20:08 | 12.95187 | -161.77822 | 39029 ft | 516 kts | 55° |
| 2026-04-22 20:08 | 12.98900 | -161.71585 | 39028 ft | 516 kts | 55° |
| 2026-04-22 20:09 | 13.02634 | -161.65308 | 39028 ft | 516 kts | 55° |
| 2026-04-22 20:09 | 13.06370 | -161.59025 | 39028 ft | 516 kts | 55° |
| 2026-04-22 20:10 | 13.10100 | -161.52746 | 39031 ft | 516 kts | 55° |
| 2026-04-22 20:10 | 13.13806 | -161.46503 | 39031 ft | 516 kts | 55° |
| 2026-04-22 20:11 | 13.17535 | -161.40216 | 39033 ft | 515 kts | 55° |
| 2026-04-22 20:11 | 13.21254 | -161.33942 | 39031 ft | 514 kts | 55° |
| 2026-04-22 20:12 | 13.24968 | -161.27671 | 39031 ft | 514 kts | 55° |
| 2026-04-22 20:12 | 13.28052 | -161.22463 | 39031 ft | 514 kts | 55° |
| 2026-04-22 20:13 | 13.32364 | -161.15173 | 39031 ft | 514 kts | 55° |
| 2026-04-22 20:13 | 13.36075 | -161.08896 | 39036 ft | 514 kts | 55° |
| 2026-04-22 20:14 | 13.39783 | -161.02618 | 39034 ft | 514 kts | 55° |
| 2026-04-22 20:14 | 13.43488 | -160.96340 | 39034 ft | 514 kts | 55° |
| 2026-04-22 20:15 | 13.47168 | -160.90101 | 39041 ft | 514 kts | 56° |
| 2026-04-22 20:15 | 13.50855 | -160.83843 | 39037 ft | 510 kts | 55° |
| 2026-04-22 20:16 | 13.54517 | -160.77624 | 39037 ft | 508 kts | 55° |
| 2026-04-22 20:16 | 13.58176 | -160.71407 | 39034 ft | 508 kts | 55° |
| 2026-04-22 20:17 | 13.61809 | -160.65231 | 39037 ft | 508 kts | 56° |
| 2026-04-22 20:17 | 13.65464 | -160.59012 | 39037 ft | 508 kts | 56° |
| 2026-04-22 20:18 | 13.69119 | -160.52788 | 39039 ft | 508 kts | 55° |
| 2026-04-22 20:18 | 13.72773 | -160.46560 | 39039 ft | 508 kts | 55° |
| 2026-04-22 20:19 | 13.76398 | -160.40379 | 39045 ft | 508 kts | 55° |
| 2026-04-22 20:19 | 13.80040 | -160.34161 | 39042 ft | 506 kts | 56° |
| 2026-04-22 20:20 | 13.83662 | -160.27973 | 39044 ft | 504 kts | 56° |
| 2026-04-22 20:20 | 13.87280 | -160.21791 | 39044 ft | 504 kts | 56° |
| 2026-04-22 20:21 | 13.90872 | -160.15647 | 39047 ft | 505 kts | 56° |
| 2026-04-22 20:21 | 13.94490 | -160.09455 | 39046 ft | 505 kts | 56° |
| 2026-04-22 20:22 | 13.98109 | -160.03263 | 39040 ft | 504 kts | 56° |
| 2026-04-22 20:22 | 14.02445 | -159.97688 | 39042 ft | 497 kts | 42° |
| 2026-04-22 20:23 | 14.07342 | -159.92734 | 39050 ft | 496 kts | 40° |
| 2026-04-22 20:23 | 14.12350 | -159.87864 | 39045 ft | 494 kts | 40° |
| 2026-04-22 20:24 | 14.17341 | -159.83017 | 39044 ft | 493 kts | 40° |
| 2026-04-22 20:24 | 14.22316 | -159.78148 | 39045 ft | 493 kts | 40° |
| 2026-04-22 20:25 | 14.27246 | -159.73309 | 39043 ft | 493 kts | 40° |
| 2026-04-22 20:25 | 14.32210 | -159.68431 | 39046 ft | 493 kts | 40° |
| 2026-04-22 20:26 | 14.37174 | -159.63552 | 39045 ft | 493 kts | 40° |
| 2026-04-22 20:26 | 14.42140 | -159.58668 | 39043 ft | 493 kts | 40° |
| 2026-04-22 20:27 | 14.47066 | -159.53821 | 39050 ft | 493 kts | 40° |
| 2026-04-22 20:27 | 14.52025 | -159.48938 | 39051 ft | 493 kts | 40° |
| 2026-04-22 20:28 | 14.56989 | -159.44047 | 39054 ft | 493 kts | 40° |
| 2026-04-22 20:28 | 14.61951 | -159.39155 | 39052 ft | 493 kts | 40° |
| 2026-04-22 20:29 | 14.66880 | -159.34291 | 39051 ft | 493 kts | 40° |
| 2026-04-22 20:29 | 14.71841 | -159.29393 | 39052 ft | 493 kts | 41° |
| 2026-04-22 20:30 | 14.76787 | -159.24506 | 39052 ft | 492 kts | 41° |
| 2026-04-22 20:30 | 14.81734 | -159.19616 | 39058 ft | 492 kts | 41° |
| 2026-04-22 20:31 | 14.86649 | -159.14755 | 39058 ft | 492 kts | 40° |
| 2026-04-22 20:31 | 14.91596 | -159.09857 | 39056 ft | 493 kts | 40° |
| 2026-04-22 20:32 | 14.96547 | -159.04954 | 39056 ft | 493 kts | 41° |
| 2026-04-22 20:32 | 15.01499 | -159.00044 | 39056 ft | 492 kts | 41° |
| 2026-04-22 20:33 | 15.06436 | -158.95147 | 39059 ft | 492 kts | 41° |
| 2026-04-22 20:33 | 15.11341 | -158.90279 | 39059 ft | 492 kts | 41° |
| 2026-04-22 20:34 | 15.16274 | -158.85379 | 39064 ft | 492 kts | 41° |
| 2026-04-22 20:34 | 15.21211 | -158.80472 | 39058 ft | 492 kts | 41° |
| 2026-04-22 20:35 | 15.26148 | -158.75562 | 39061 ft | 492 kts | 41° |
| 2026-04-22 20:35 | 15.31050 | -158.70683 | 39064 ft | 492 kts | 41° |
| 2026-04-22 20:36 | 15.35981 | -158.65772 | 39048 ft | 492 kts | 41° |
| 2026-04-22 20:36 | 15.40910 | -158.60859 | 39065 ft | 491 kts | 41° |
| 2026-04-22 20:37 | 15.45838 | -158.55945 | 39067 ft | 491 kts | 41° |
| 2026-04-22 20:37 | 15.50731 | -158.51061 | 39066 ft | 492 kts | 41° |
| 2026-04-22 20:38 | 15.55661 | -158.46137 | 39063 ft | 492 kts | 41° |
| 2026-04-22 20:38 | 15.60593 | -158.41209 | 39074 ft | 492 kts | 41° |
| 2026-04-22 20:39 | 15.65526 | -158.36275 | 39062 ft | 493 kts | 41° |
| 2026-04-22 20:39 | 15.70459 | -158.31338 | 39060 ft | 493 kts | 41° |
| 2026-04-22 20:40 | 15.75351 | -158.26437 | 39065 ft | 492 kts | 41° |
| 2026-04-22 20:40 | 15.80282 | -158.21495 | 39057 ft | 493 kts | 41° |
| 2026-04-22 20:41 | 15.85214 | -158.16549 | 39061 ft | 493 kts | 41° |
| 2026-04-22 20:41 | 15.90112 | -158.11633 | 39072 ft | 493 kts | 41° |
| 2026-04-22 20:42 | 15.95051 | -158.06672 | 39065 ft | 494 kts | 41° |
| 2026-04-22 20:42 | 15.99992 | -158.01706 | 39070 ft | 494 kts | 41° |
| 2026-04-22 20:43 | 16.04928 | -157.96741 | 39074 ft | 494 kts | 41° |
| 2026-04-22 20:43 | 16.09834 | -157.91802 | 39070 ft | 494 kts | 41° |
| 2026-04-22 20:44 | 16.14769 | -157.86831 | 39072 ft | 494 kts | 41° |
| 2026-04-22 20:44 | 16.19700 | -157.81860 | 39071 ft | 494 kts | 41° |
| 2026-04-22 20:45 | 16.24631 | -157.76885 | 39074 ft | 493 kts | 41° |
| 2026-04-22 20:45 | 16.29557 | -157.71913 | 39075 ft | 493 kts | 41° |
| 2026-04-22 20:46 | 16.36909 | -157.64483 | 39075 ft | 493 kts | 41° |
| 2026-04-22 20:46 | 16.41833 | -157.59503 | 39077 ft | 493 kts | 41° |
| 2026-04-22 20:47 | 16.46758 | -157.54518 | 39074 ft | 493 kts | 41° |
| 2026-04-22 20:47 | 16.51645 | -157.49568 | 39077 ft | 494 kts | 41° |
| 2026-04-22 20:48 | 16.56575 | -157.44571 | 39075 ft | 494 kts | 41° |
| 2026-04-22 20:48 | 16.61501 | -157.39573 | 39075 ft | 494 kts | 41° |
| 2026-04-22 20:49 | 16.66424 | -157.34576 | 39075 ft | 494 kts | 41° |
| 2026-04-22 20:49 | 16.71349 | -157.29572 | 39079 ft | 494 kts | 41° |
| 2026-04-22 20:50 | 16.76237 | -157.24602 | 39076 ft | 494 kts | 41° |
| 2026-04-22 20:50 | 16.81157 | -157.19595 | 39080 ft | 494 kts | 41° |
| 2026-04-22 20:51 | 16.86071 | -157.14592 | 39076 ft | 494 kts | 41° |
| 2026-04-22 20:51 | 16.90985 | -157.09584 | 39076 ft | 494 kts | 41° |
| 2026-04-22 20:52 | 16.95861 | -157.04611 | 39080 ft | 494 kts | 41° |
| 2026-04-22 20:52 | 17.00779 | -156.99591 | 39081 ft | 494 kts | 41° |
| 2026-04-22 20:53 | 17.05688 | -156.94577 | 39090 ft | 494 kts | 41° |
| 2026-04-22 20:53 | 17.10592 | -156.89564 | 39084 ft | 493 kts | 41° |
| 2026-04-22 20:54 | 17.15461 | -156.84582 | 39081 ft | 492 kts | 41° |
| 2026-04-22 20:54 | 17.20354 | -156.79573 | 39081 ft | 492 kts | 41° |
| 2026-04-22 20:55 | 17.25245 | -156.74561 | 39083 ft | 492 kts | 41° |
| 2026-04-22 20:55 | 17.30137 | -156.69545 | 39083 ft | 492 kts | 41° |
| 2026-04-22 20:56 | 17.34993 | -156.64562 | 39079 ft | 492 kts | 41° |
| 2026-04-22 20:56 | 17.39880 | -156.59542 | 39083 ft | 492 kts | 41° |
| 2026-04-22 20:57 | 17.44770 | -156.54516 | 39083 ft | 492 kts | 41° |
| 2026-04-22 20:57 | 17.49660 | -156.49487 | 39082 ft | 493 kts | 41° |
| 2026-04-22 20:58 | 17.54547 | -156.44455 | 39086 ft | 493 kts | 41° |
| 2026-04-22 20:58 | 17.59404 | -156.39450 | 39086 ft | 493 kts | 41° |
| 2026-04-22 20:59 | 17.64287 | -156.34416 | 39091 ft | 492 kts | 41° |
| 2026-04-22 20:59 | 17.69167 | -156.29380 | 39088 ft | 492 kts | 41° |
| 2026-04-22 21:00 | 17.74041 | -156.24345 | 39091 ft | 492 kts | 41° |
| 2026-04-22 21:00 | 17.78880 | -156.19344 | 39092 ft | 492 kts | 41° |
| 2026-04-22 21:01 | 17.83751 | -156.14305 | 39090 ft | 492 kts | 41° |
| 2026-04-22 21:01 | 17.88624 | -156.09260 | 39089 ft | 492 kts | 41° |
| 2026-04-22 21:02 | 17.93491 | -156.04217 | 39090 ft | 491 kts | 41° |
| 2026-04-22 21:02 | 17.98322 | -155.99207 | 39091 ft | 491 kts | 41° |
| 2026-04-22 21:03 | 18.03183 | -155.94162 | 39087 ft | 491 kts | 41° |
| 2026-04-22 21:03 | 18.08043 | -155.89115 | 39089 ft | 491 kts | 41° |
| 2026-04-22 21:04 | 18.12904 | -155.84061 | 39095 ft | 491 kts | 42° |
| 2026-04-22 21:04 | 18.17731 | -155.79039 | 39102 ft | 491 kts | 42° |
| 2026-04-22 21:05 | 18.22587 | -155.73983 | 39093 ft | 491 kts | 41° |
| 2026-04-22 21:05 | 18.27443 | -155.68921 | 39087 ft | 491 kts | 41° |
| 2026-04-22 21:06 | 18.32293 | -155.63863 | 39088 ft | 491 kts | 41° |
| 2026-04-22 21:06 | 18.37112 | -155.58833 | 39099 ft | 491 kts | 41° |
| 2026-04-22 21:07 | 18.41961 | -155.53767 | 39089 ft | 491 kts | 42° |
| 2026-04-22 21:07 | 18.46808 | -155.48699 | 39092 ft | 491 kts | 41° |
| 2026-04-22 21:08 | 18.51652 | -155.43630 | 39099 ft | 491 kts | 41° |
| 2026-04-22 21:08 | 18.56468 | -155.38586 | 39098 ft | 491 kts | 41° |
| 2026-04-22 21:09 | 18.61313 | -155.33507 | 39097 ft | 491 kts | 42° |
| 2026-04-22 21:09 | 18.66160 | -155.28421 | 39095 ft | 491 kts | 42° |
| 2026-04-22 21:10 | 18.71007 | -155.23331 | 39099 ft | 492 kts | 42° |
| 2026-04-22 21:10 | 18.75822 | -155.18271 | 39099 ft | 492 kts | 41° |
| 2026-04-22 21:11 | 18.80665 | -155.13176 | 39103 ft | 492 kts | 41° |
| 2026-04-22 21:11 | 18.85510 | -155.08075 | 39106 ft | 492 kts | 41° |
| 2026-04-22 21:12 | 18.90355 | -155.02970 | 39096 ft | 492 kts | 41° |
| 2026-04-22 21:12 | 18.95165 | -154.97898 | 39103 ft | 492 kts | 42° |
| 2026-04-22 21:13 | 19.00005 | -154.92789 | 39108 ft | 492 kts | 41° |
| 2026-04-22 21:13 | 19.04850 | -154.87671 | 39102 ft | 492 kts | 41° |
| 2026-04-22 21:14 | 19.09689 | -154.82555 | 39102 ft | 492 kts | 41° |
| 2026-04-22 21:14 | 19.14526 | -154.77436 | 39103 ft | 492 kts | 41° |
| 2026-04-22 21:15 | 19.19334 | -154.72343 | 39102 ft | 492 kts | 41° |
| 2026-04-22 21:15 | 19.24168 | -154.67219 | 39102 ft | 492 kts | 41° |
| 2026-04-22 21:16 | 19.29003 | -154.62088 | 39106 ft | 492 kts | 41° |
| 2026-04-22 21:16 | 19.33833 | -154.56958 | 39103 ft | 492 kts | 41° |
| 2026-04-22 21:17 | 19.38630 | -154.51859 | 39103 ft | 492 kts | 41° |
| 2026-04-22 21:17 | 19.43459 | -154.46722 | 39103 ft | 492 kts | 41° |
| 2026-04-22 21:18 | 19.48282 | -154.41586 | 39106 ft | 492 kts | 41° |
| 2026-04-22 21:18 | 19.53108 | -154.36443 | 39113 ft | 492 kts | 41° |
| 2026-04-22 21:19 | 19.57929 | -154.31300 | 39111 ft | 492 kts | 42° |
| 2026-04-22 21:19 | 19.62719 | -154.26185 | 39102 ft | 492 kts | 42° |
| 2026-04-22 21:20 | 19.67537 | -154.21037 | 39110 ft | 492 kts | 42° |
| 2026-04-22 21:20 | 19.72354 | -154.15884 | 39108 ft | 492 kts | 42° |
| 2026-04-22 21:21 | 19.77173 | -154.10724 | 39109 ft | 492 kts | 42° |
| 2026-04-22 21:21 | 19.81954 | -154.05601 | 39114 ft | 492 kts | 42° |
| 2026-04-22 21:22 | 19.86766 | -154.00440 | 39110 ft | 492 kts | 42° |
| 2026-04-22 21:22 | 19.91578 | -153.95274 | 39116 ft | 492 kts | 42° |
| 2026-04-22 21:23 | 19.96382 | -153.90112 | 39113 ft | 491 kts | 42° |
| 2026-04-22 21:23 | 20.01190 | -153.84941 | 39112 ft | 491 kts | 42° |
| 2026-04-22 21:24 | 20.05959 | -153.79806 | 39118 ft | 491 kts | 42° |
| 2026-04-22 21:24 | 20.10763 | -153.74630 | 39113 ft | 491 kts | 42° |
| 2026-04-22 21:25 | 20.15562 | -153.69454 | 39113 ft | 491 kts | 42° |
| 2026-04-22 21:25 | 20.20355 | -153.64280 | 39115 ft | 491 kts | 42° |
| 2026-04-22 21:26 | 20.25116 | -153.59136 | 39116 ft | 491 kts | 42° |
| 2026-04-22 21:26 | 20.29912 | -153.53950 | 39115 ft | 491 kts | 42° |
| 2026-04-22 21:27 | 20.34698 | -153.48768 | 39116 ft | 491 kts | 42° |
| 2026-04-22 21:27 | 20.38680 | -153.44453 | 39116 ft | 491 kts | 42° |
| 2026-04-22 21:28 | 20.43469 | -153.39260 | 39116 ft | 490 kts | 41° |
| 2026-04-22 21:28 | 20.49023 | -153.33231 | 39116 ft | 490 kts | 42° |
| 2026-04-22 21:29 | 20.53795 | -153.28045 | 39119 ft | 490 kts | 42° |
| 2026-04-22 21:29 | 20.57766 | -153.23727 | 39121 ft | 490 kts | 41° |
| 2026-04-22 21:30 | 20.62539 | -153.18532 | 39124 ft | 490 kts | 41° |
| 2026-04-22 21:30 | 20.68090 | -153.12484 | 39130 ft | 490 kts | 41° |
| 2026-04-22 21:31 | 20.72082 | -153.08129 | 39122 ft | 489 kts | 41° |
| 2026-04-22 21:31 | 20.76809 | -153.02964 | 39120 ft | 489 kts | 41° |
| 2026-04-22 21:32 | 20.80882 | -152.97089 | 39124 ft | 496 kts | 56° |
| 2026-04-22 21:32 | 20.84241 | -152.90621 | 39124 ft | 498 kts | 58° |
| 2026-04-22 21:33 | 20.87471 | -152.84059 | 39121 ft | 499 kts | 58° |
| 2026-04-22 21:33 | 20.90670 | -152.77538 | 39120 ft | 498 kts | 58° |
| 2026-04-22 21:34 | 20.93902 | -152.70988 | 39120 ft | 498 kts | 58° |
| 2026-04-22 21:34 | 20.97143 | -152.64440 | 39120 ft | 498 kts | 58° |
| 2026-04-22 21:35 | 21.00384 | -152.57887 | 39128 ft | 498 kts | 58° |
| 2026-04-22 21:35 | 21.03620 | -152.51336 | 39131 ft | 498 kts | 58° |
| 2026-04-22 21:36 | 21.06831 | -152.44825 | 39121 ft | 497 kts | 58° |
| 2026-04-22 21:36 | 21.10057 | -152.38275 | 39121 ft | 497 kts | 58° |
| 2026-04-22 21:37 | 21.13281 | -152.31722 | 39121 ft | 497 kts | 58° |
| 2026-04-22 21:37 | 21.16505 | -152.25163 | 39127 ft | 498 kts | 58° |
| 2026-04-22 21:38 | 21.19703 | -152.18646 | 39125 ft | 497 kts | 58° |
| 2026-04-22 21:38 | 21.22915 | -152.12093 | 39124 ft | 496 kts | 58° |
| 2026-04-22 21:39 | 21.26122 | -152.05544 | 39126 ft | 496 kts | 57° |
| 2026-04-22 21:39 | 21.29327 | -151.98991 | 39124 ft | 496 kts | 57° |
| 2026-04-22 21:40 | 21.32507 | -151.92480 | 39133 ft | 496 kts | 57° |
| 2026-04-22 21:40 | 21.35704 | -151.85926 | 39127 ft | 495 kts | 57° |
| 2026-04-22 21:41 | 21.38895 | -151.79377 | 39127 ft | 495 kts | 57° |
| 2026-04-22 21:41 | 21.42082 | -151.72827 | 39127 ft | 495 kts | 57° |
| 2026-04-22 21:42 | 21.45268 | -151.66273 | 39129 ft | 495 kts | 57° |
| 2026-04-22 21:42 | 21.48430 | -151.59759 | 39126 ft | 496 kts | 57° |
| 2026-04-22 21:43 | 21.51615 | -151.53191 | 39123 ft | 496 kts | 57° |
| 2026-04-22 21:43 | 21.54797 | -151.46620 | 39138 ft | 496 kts | 57° |
| 2026-04-22 21:44 | 21.57943 | -151.40017 | 39134 ft | 497 kts | 58° |
| 2026-04-22 21:44 | 21.61023 | -151.33427 | 39136 ft | 497 kts | 58° |
| 2026-04-22 21:45 | 21.64121 | -151.26799 | 39125 ft | 496 kts | 58° |
| 2026-04-22 21:45 | 21.67226 | -151.20171 | 39137 ft | 496 kts | 57° |
| 2026-04-22 21:46 | 21.70332 | -151.13543 | 39130 ft | 497 kts | 57° |
| 2026-04-22 21:46 | 21.73442 | -151.06900 | 39129 ft | 497 kts | 57° |
| 2026-04-22 21:47 | 21.76527 | -151.00299 | 39133 ft | 497 kts | 57° |
| 2026-04-22 21:47 | 21.79631 | -150.93649 | 39135 ft | 497 kts | 57° |
| 2026-04-22 21:48 | 21.82731 | -150.86998 | 39130 ft | 497 kts | 57° |
| 2026-04-22 21:48 | 21.85829 | -150.80343 | 39135 ft | 497 kts | 57° |
| 2026-04-22 21:49 | 21.88907 | -150.73723 | 39142 ft | 498 kts | 57° |
| 2026-04-22 21:49 | 21.92003 | -150.67055 | 39132 ft | 498 kts | 57° |
| 2026-04-22 21:50 | 21.95096 | -150.60385 | 39132 ft | 498 kts | 57° |
| 2026-04-22 21:50 | 21.98186 | -150.53713 | 39132 ft | 498 kts | 57° |
| 2026-04-22 21:51 | 22.01250 | -150.47088 | 39132 ft | 498 kts | 57° |
| 2026-04-22 21:52 | 22.05872 | -150.37078 | 39132 ft | 496 kts | 57° |
| 2026-04-22 21:52 | 22.08943 | -150.30416 | 39145 ft | 496 kts | 57° |
| 2026-04-22 21:53 | 22.12012 | -150.23751 | 39137 ft | 497 kts | 57° |
| 2026-04-22 21:53 | 22.15064 | -150.17115 | 39139 ft | 497 kts | 57° |
| 2026-04-22 21:54 | 22.18127 | -150.10444 | 39128 ft | 496 kts | 57° |
| 2026-04-22 21:54 | 22.21180 | -150.03784 | 39128 ft | 495 kts | 57° |
| 2026-04-22 21:55 | 22.24232 | -149.97121 | 39134 ft | 495 kts | 57° |
| 2026-04-22 21:55 | 22.27283 | -149.90452 | 39130 ft | 495 kts | 57° |
| 2026-04-22 21:56 | 22.30307 | -149.83831 | 39130 ft | 495 kts | 57° |
| 2026-04-22 21:56 | 22.33343 | -149.77176 | 39135 ft | 494 kts | 57° |
| 2026-04-22 21:57 | 22.36376 | -149.70518 | 39133 ft | 494 kts | 57° |
| 2026-04-22 21:57 | 22.39385 | -149.63906 | 39135 ft | 494 kts | 57° |
| 2026-04-22 21:58 | 22.42414 | -149.57239 | 39136 ft | 494 kts | 57° |
| 2026-04-22 21:58 | 22.45434 | -149.50582 | 39135 ft | 493 kts | 57° |
| 2026-04-22 21:59 | 22.48450 | -149.43925 | 39134 ft | 493 kts | 57° |
| 2026-04-22 21:59 | 22.51449 | -149.37300 | 39137 ft | 494 kts | 57° |
| 2026-04-22 22:00 | 22.54465 | -149.30626 | 39146 ft | 494 kts | 57° |
| 2026-04-22 22:00 | 22.57473 | -149.23959 | 39137 ft | 493 kts | 57° |
| 2026-04-22 22:01 | 22.60481 | -149.17286 | 39137 ft | 493 kts | 57° |
| 2026-04-22 22:01 | 22.63463 | -149.10661 | 39138 ft | 493 kts | 57° |
| 2026-04-22 22:02 | 22.66462 | -149.03990 | 39145 ft | 493 kts | 57° |
| 2026-04-22 22:02 | 22.69461 | -148.97309 | 39133 ft | 493 kts | 56° |
| 2026-04-22 22:03 | 22.72448 | -148.90643 | 39131 ft | 492 kts | 56° |
| 2026-04-22 22:03 | 22.75414 | -148.84018 | 39130 ft | 492 kts | 57° |
| 2026-04-22 22:04 | 22.78399 | -148.77341 | 39136 ft | 492 kts | 57° |
| 2026-04-22 22:04 | 22.81380 | -148.70665 | 39137 ft | 492 kts | 57° |
| 2026-04-22 22:05 | 22.84357 | -148.63988 | 39142 ft | 492 kts | 57° |
| 2026-04-22 22:05 | 22.87316 | -148.57342 | 39138 ft | 493 kts | 57° |
| 2026-04-22 22:06 | 22.90295 | -148.50642 | 39133 ft | 493 kts | 57° |
| 2026-04-22 22:06 | 22.93269 | -148.43942 | 39137 ft | 492 kts | 57° |
| 2026-04-22 22:07 | 22.96232 | -148.37257 | 39135 ft | 491 kts | 57° |
| 2026-04-22 22:07 | 22.99171 | -148.30620 | 39138 ft | 491 kts | 57° |
| 2026-04-22 22:08 | 23.02124 | -148.23942 | 39138 ft | 491 kts | 57° |
| 2026-04-22 22:08 | 23.05079 | -148.17252 | 39143 ft | 491 kts | 57° |
| 2026-04-22 22:09 | 23.08028 | -148.10562 | 39138 ft | 491 kts | 57° |
| 2026-04-22 22:09 | 23.10951 | -148.03923 | 39138 ft | 491 kts | 57° |
| 2026-04-22 22:10 | 23.13892 | -147.97235 | 39137 ft | 491 kts | 57° |
| 2026-04-22 22:10 | 23.16829 | -147.90545 | 39146 ft | 490 kts | 57° |
| 2026-04-22 22:11 | 23.19758 | -147.83864 | 39136 ft | 489 kts | 57° |
| 2026-04-22 22:11 | 23.22662 | -147.77231 | 39147 ft | 489 kts | 57° |
| 2026-04-22 22:12 | 23.25588 | -147.70544 | 39133 ft | 490 kts | 57° |
| 2026-04-22 22:12 | 23.28515 | -147.63841 | 39151 ft | 490 kts | 57° |
| 2026-04-22 22:13 | 23.31436 | -147.57140 | 39138 ft | 490 kts | 57° |
| 2026-04-22 22:13 | 23.34331 | -147.50489 | 39140 ft | 490 kts | 57° |
| 2026-04-22 22:14 | 23.37247 | -147.43782 | 39140 ft | 490 kts | 57° |
| 2026-04-22 22:14 | 23.40159 | -147.37078 | 39145 ft | 490 kts | 57° |
| 2026-04-22 22:15 | 23.43074 | -147.30356 | 39140 ft | 491 kts | 57° |
| 2026-04-22 22:15 | 23.45967 | -147.23673 | 39140 ft | 491 kts | 57° |
| 2026-04-22 22:16 | 23.48878 | -147.16937 | 39138 ft | 491 kts | 57° |
| 2026-04-22 22:16 | 23.51786 | -147.10201 | 39138 ft | 491 kts | 57° |
| 2026-04-22 22:17 | 23.54685 | -147.03473 | 39138 ft | 490 kts | 57° |
| 2026-04-22 22:17 | 23.57556 | -146.96802 | 39143 ft | 490 kts | 57° |
| 2026-04-22 22:18 | 23.60456 | -146.90062 | 39140 ft | 492 kts | 57° |
| 2026-04-22 22:18 | 23.63361 | -146.83297 | 39141 ft | 493 kts | 57° |
| 2026-04-22 22:19 | 23.66253 | -146.76542 | 39140 ft | 491 kts | 57° |
| 2026-04-22 22:19 | 23.69139 | -146.69797 | 39141 ft | 490 kts | 57° |
| 2026-04-22 22:20 | 23.72002 | -146.63098 | 39143 ft | 490 kts | 57° |
| 2026-04-22 22:20 | 23.74883 | -146.56350 | 39147 ft | 491 kts | 57° |
| 2026-04-22 22:21 | 23.77767 | -146.49583 | 39145 ft | 492 kts | 57° |
| 2026-04-22 22:21 | 23.80645 | -146.42818 | 39146 ft | 492 kts | 57° |
| 2026-04-22 22:22 | 23.83522 | -146.36045 | 39148 ft | 492 kts | 57° |
| 2026-04-22 22:22 | 23.86379 | -146.29311 | 39151 ft | 492 kts | 57° |
| 2026-04-22 22:23 | 23.89243 | -146.22546 | 39143 ft | 490 kts | 57° |
| 2026-04-22 22:23 | 23.92099 | -146.15795 | 39153 ft | 490 kts | 57° |
| 2026-04-22 22:24 | 23.94968 | -146.09009 | 39148 ft | 493 kts | 57° |
| 2026-04-22 22:24 | 23.97819 | -146.02250 | 39148 ft | 493 kts | 57° |
| 2026-04-22 22:25 | 24.00686 | -145.95440 | 39148 ft | 493 kts | 57° |
| 2026-04-22 22:25 | 24.03552 | -145.88622 | 39149 ft | 493 kts | 57° |
| 2026-04-22 22:26 | 24.06411 | -145.81810 | 39148 ft | 493 kts | 57° |
| 2026-04-22 22:26 | 24.09252 | -145.75034 | 39149 ft | 493 kts | 58° |
| 2026-04-22 22:27 | 24.12101 | -145.68226 | 39151 ft | 492 kts | 58° |
| 2026-04-22 22:27 | 24.14948 | -145.61416 | 39151 ft | 492 kts | 58° |
| 2026-04-22 22:28 | 24.17789 | -145.54609 | 39151 ft | 492 kts | 58° |
| 2026-04-22 22:28 | 24.20630 | -145.47793 | 39153 ft | 492 kts | 58° |
| 2026-04-22 22:29 | 24.23452 | -145.41013 | 39163 ft | 493 kts | 58° |
| 2026-04-22 22:29 | 24.26293 | -145.34173 | 39150 ft | 494 kts | 58° |
| 2026-04-22 22:30 | 24.29136 | -145.27319 | 39155 ft | 494 kts | 58° |
| 2026-04-22 22:30 | 24.31975 | -145.20465 | 39157 ft | 495 kts | 59° |
| 2026-04-22 22:31 | 24.34803 | -145.13628 | 39156 ft | 496 kts | 59° |
| 2026-04-22 22:31 | 24.37646 | -145.06743 | 39153 ft | 496 kts | 59° |
| 2026-04-22 22:32 | 24.40487 | -144.99850 | 39154 ft | 496 kts | 59° |
| 2026-04-22 22:32 | 24.43338 | -144.92938 | 39155 ft | 498 kts | 59° |
| 2026-04-22 22:33 | 24.46176 | -144.86048 | 39160 ft | 499 kts | 59° |
| 2026-04-22 22:33 | 24.49029 | -144.79106 | 39154 ft | 499 kts | 59° |
| 2026-04-22 22:34 | 24.51880 | -144.72162 | 39157 ft | 499 kts | 60° |
| 2026-04-22 22:34 | 24.54726 | -144.65216 | 39154 ft | 499 kts | 60° |
| 2026-04-22 22:35 | 24.57577 | -144.58254 | 39164 ft | 501 kts | 60° |
| 2026-04-22 22:35 | 24.60414 | -144.51313 | 39160 ft | 502 kts | 60° |
| 2026-04-22 22:36 | 24.63269 | -144.44318 | 39161 ft | 502 kts | 60° |
| 2026-04-22 22:36 | 24.66125 | -144.37309 | 39160 ft | 503 kts | 60° |
| 2026-04-22 22:37 | 24.68976 | -144.30289 | 39164 ft | 502 kts | 60° |
| 2026-04-22 22:37 | 24.71807 | -144.23316 | 39164 ft | 503 kts | 61° |
| 2026-04-22 22:38 | 24.74659 | -144.16281 | 39164 ft | 505 kts | 61° |
| 2026-04-22 22:38 | 24.77516 | -144.09223 | 39161 ft | 505 kts | 61° |
| 2026-04-22 22:39 | 24.80367 | -144.02165 | 39162 ft | 505 kts | 61° |
| 2026-04-22 22:39 | 24.83197 | -143.95148 | 39163 ft | 505 kts | 62° |
| 2026-04-22 22:40 | 24.86050 | -143.88067 | 39175 ft | 506 kts | 62° |
| 2026-04-22 22:40 | 24.88904 | -143.80969 | 39167 ft | 507 kts | 62° |
| 2026-04-22 22:41 | 24.91737 | -143.73912 | 39181 ft | 507 kts | 61° |
| 2026-04-22 22:41 | 24.94592 | -143.66789 | 39168 ft | 509 kts | 61° |
| 2026-04-22 22:42 | 24.97452 | -143.59641 | 39169 ft | 510 kts | 62° |
| 2026-04-22 22:42 | 25.00306 | -143.52494 | 39167 ft | 510 kts | 62° |
| 2026-04-22 22:43 | 25.03161 | -143.45334 | 39166 ft | 511 kts | 62° |
| 2026-04-22 22:43 | 25.06005 | -143.38192 | 39166 ft | 512 kts | 62° |
| 2026-04-22 22:44 | 25.08863 | -143.31002 | 39167 ft | 512 kts | 62° |
| 2026-04-22 22:44 | 25.11717 | -143.23807 | 39174 ft | 512 kts | 62° |
| 2026-04-22 22:45 | 25.14568 | -143.16608 | 39173 ft | 512 kts | 62° |
| 2026-04-22 22:45 | 25.17399 | -143.09452 | 39171 ft | 513 kts | 62° |
| 2026-04-22 22:46 | 25.20252 | -143.02225 | 39173 ft | 513 kts | 62° |
| 2026-04-22 22:46 | 25.23100 | -142.94999 | 39175 ft | 513 kts | 62° |
| 2026-04-22 22:47 | 25.25950 | -142.87755 | 39429 ft | 513 kts | 62° |
| 2026-04-22 22:47 | 25.27370 | -142.84141 | 39606 ft | 512 kts | 62° |
| 2026-04-22 22:47 | 25.28766 | -142.80583 | 39795 ft | 512 kts | 62° |
| 2026-04-22 22:47 | 25.30180 | -142.76978 | 39956 ft | 511 kts | 62° |
| 2026-04-22 22:48 | 25.31596 | -142.73366 | 40061 ft | 512 kts | 62° |
| 2026-04-22 22:48 | 25.33010 | -142.69756 | 40199 ft | 512 kts | 62° |
| 2026-04-22 22:48 | 25.34423 | -142.66144 | 40358 ft | 511 kts | 62° |
| 2026-04-22 22:48 | 25.35830 | -142.62545 | 40509 ft | 510 kts | 62° |
| 2026-04-22 22:49 | 25.37238 | -142.58940 | 40626 ft | 510 kts | 62° |
| 2026-04-22 22:49 | 25.38641 | -142.55345 | 40776 ft | 510 kts | 62° |
| 2026-04-22 22:49 | 25.40044 | -142.51747 | 40890 ft | 509 kts | 63° |
| 2026-04-22 22:49 | 25.41429 | -142.48193 | 41026 ft | 509 kts | 63° |
| 2026-04-22 22:50 | 25.42825 | -142.44607 | 41139 ft | 509 kts | 63° |
| 2026-04-22 22:50 | 25.45631 | -142.37391 | 41180 ft | 511 kts | 63° |
| 2026-04-22 22:51 | 25.48437 | -142.30162 | 41176 ft | 511 kts | 63° |
| 2026-04-22 22:51 | 25.51218 | -142.22982 | 41178 ft | 511 kts | 63° |
| 2026-04-22 22:52 | 25.54015 | -142.15749 | 41178 ft | 511 kts | 63° |
| 2026-04-22 22:52 | 25.56812 | -142.08506 | 41179 ft | 511 kts | 63° |
| 2026-04-22 22:53 | 25.59602 | -142.01268 | 41179 ft | 511 kts | 63° |
| 2026-04-22 22:53 | 25.62391 | -141.94018 | 41179 ft | 511 kts | 63° |
| 2026-04-22 22:54 | 25.65158 | -141.86813 | 41182 ft | 512 kts | 63° |
| 2026-04-22 22:54 | 25.67940 | -141.79558 | 41182 ft | 512 kts | 63° |
| 2026-04-22 22:55 | 25.70719 | -141.72297 | 41181 ft | 511 kts | 63° |
| 2026-04-22 22:55 | 25.74883 | -141.61393 | 41181 ft | 512 kts | 64° |
| 2026-04-22 22:56 | 25.77640 | -141.54158 | 41183 ft | 512 kts | 64° |
| 2026-04-22 22:56 | 25.80409 | -141.46878 | 41185 ft | 512 kts | 64° |
| 2026-04-22 22:57 | 25.83174 | -141.39596 | 41183 ft | 512 kts | 64° |
| 2026-04-22 22:57 | 25.85937 | -141.32307 | 41184 ft | 512 kts | 64° |
| 2026-04-22 22:58 | 25.88675 | -141.25069 | 41183 ft | 512 kts | 64° |
| 2026-04-22 22:58 | 25.91428 | -141.17779 | 41182 ft | 512 kts | 64° |
| 2026-04-22 22:59 | 25.94176 | -141.10491 | 41185 ft | 512 kts | 64° |
| 2026-04-22 22:59 | 25.96922 | -141.03193 | 41183 ft | 512 kts | 64° |
| 2026-04-22 23:00 | 25.99647 | -140.95941 | 41189 ft | 512 kts | 64° |
| 2026-04-22 23:00 | 26.02390 | -140.88626 | 41187 ft | 513 kts | 64° |
| 2026-04-22 23:01 | 26.05132 | -140.81300 | 41186 ft | 512 kts | 64° |
| 2026-04-22 23:01 | 26.07864 | -140.73987 | 41190 ft | 512 kts | 64° |
| 2026-04-22 23:02 | 26.10592 | -140.66672 | 41205 ft | 512 kts | 64° |
| 2026-04-22 23:02 | 26.13301 | -140.59396 | 41188 ft | 512 kts | 65° |
| 2026-04-22 23:03 | 26.16023 | -140.52070 | 41188 ft | 512 kts | 65° |
| 2026-04-22 23:03 | 26.18740 | -140.44744 | 41186 ft | 512 kts | 65° |
| 2026-04-22 23:04 | 26.21455 | -140.37412 | 41195 ft | 512 kts | 65° |
| 2026-04-22 23:04 | 26.24146 | -140.30129 | 41189 ft | 511 kts | 65° |
| 2026-04-22 23:05 | 26.26852 | -140.22794 | 41190 ft | 512 kts | 65° |
| 2026-04-22 23:05 | 26.29555 | -140.15453 | 41198 ft | 512 kts | 65° |
| 2026-04-22 23:06 | 26.32251 | -140.08117 | 41195 ft | 511 kts | 65° |
| 2026-04-22 23:06 | 26.34923 | -140.00832 | 41190 ft | 511 kts | 65° |
| 2026-04-22 23:07 | 26.37610 | -139.93495 | 41201 ft | 511 kts | 66° |
| 2026-04-22 23:07 | 26.40290 | -139.86162 | 41183 ft | 510 kts | 66° |
| 2026-04-22 23:08 | 26.42964 | -139.78832 | 41188 ft | 510 kts | 66° |
| 2026-04-22 23:08 | 26.45635 | -139.71497 | 41198 ft | 510 kts | 66° |
| 2026-04-22 23:09 | 26.48278 | -139.64223 | 41195 ft | 509 kts | 66° |
| 2026-04-22 23:09 | 26.50938 | -139.56891 | 41196 ft | 510 kts | 66° |
| 2026-04-22 23:10 | 26.53594 | -139.49558 | 41193 ft | 510 kts | 66° |
| 2026-04-22 23:10 | 26.56227 | -139.42272 | 41201 ft | 509 kts | 66° |
| 2026-04-22 23:11 | 26.58868 | -139.34951 | 41201 ft | 508 kts | 66° |
| 2026-04-22 23:11 | 26.61508 | -139.27617 | 41194 ft | 509 kts | 66° |
| 2026-04-22 23:12 | 26.64143 | -139.20285 | 41199 ft | 508 kts | 66° |
| 2026-04-22 23:12 | 26.66776 | -139.12944 | 41202 ft | 508 kts | 66° |
| 2026-04-22 23:13 | 26.69385 | -139.05657 | 41202 ft | 508 kts | 67° |
| 2026-04-22 23:13 | 26.72001 | -138.98337 | 41211 ft | 507 kts | 67° |
| 2026-04-22 23:14 | 26.74614 | -138.91010 | 41204 ft | 508 kts | 67° |
| 2026-04-22 23:14 | 26.77229 | -138.83665 | 41203 ft | 508 kts | 67° |
| 2026-04-22 23:15 | 26.79824 | -138.76363 | 41204 ft | 508 kts | 67° |
| 2026-04-22 23:15 | 26.82431 | -138.69010 | 41203 ft | 508 kts | 67° |
| 2026-04-22 23:16 | 26.85035 | -138.61653 | 41203 ft | 508 kts | 67° |
| 2026-04-22 23:16 | 26.87629 | -138.54309 | 41205 ft | 507 kts | 67° |
| 2026-04-22 23:17 | 26.90216 | -138.46972 | 41209 ft | 507 kts | 67° |
| 2026-04-22 23:17 | 26.92784 | -138.39676 | 41207 ft | 506 kts | 67° |
| 2026-04-22 23:18 | 26.95360 | -138.32342 | 41210 ft | 505 kts | 67° |
| 2026-04-22 23:18 | 26.97933 | -138.25003 | 41208 ft | 506 kts | 67° |
| 2026-04-22 23:19 | 26.99846 | -138.17418 | 41209 ft | 507 kts | 79° |
| 2026-04-22 23:19 | 27.00947 | -138.09616 | 41210 ft | 507 kts | 81° |
| 2026-04-22 23:20 | 27.01910 | -138.01840 | 41210 ft | 507 kts | 82° |
| 2026-04-22 23:20 | 27.02868 | -137.94016 | 41213 ft | 506 kts | 82° |
| 2026-04-22 23:21 | 27.03840 | -137.86196 | 41211 ft | 506 kts | 82° |
| 2026-04-22 23:21 | 27.04816 | -137.78373 | 41209 ft | 506 kts | 82° |
| 2026-04-22 23:22 | 27.05782 | -137.70612 | 41208 ft | 506 kts | 82° |
| 2026-04-22 23:22 | 27.06750 | -137.62795 | 41208 ft | 506 kts | 82° |
| 2026-04-22 23:23 | 27.07713 | -137.54976 | 41208 ft | 506 kts | 82° |
| 2026-04-22 23:23 | 27.08671 | -137.47158 | 41212 ft | 506 kts | 82° |
| 2026-04-22 23:24 | 27.09618 | -137.39392 | 41213 ft | 506 kts | 82° |
| 2026-04-22 23:24 | 27.10568 | -137.31569 | 41214 ft | 506 kts | 82° |
| 2026-04-22 23:25 | 27.11514 | -137.23741 | 41213 ft | 506 kts | 82° |
| 2026-04-22 23:25 | 27.12455 | -137.15916 | 41212 ft | 506 kts | 82° |
| 2026-04-22 23:26 | 27.13387 | -137.08135 | 41214 ft | 506 kts | 82° |
| 2026-04-22 23:26 | 27.14320 | -137.00301 | 41214 ft | 506 kts | 82° |
| 2026-04-22 23:27 | 27.15249 | -136.92462 | 41213 ft | 507 kts | 82° |
| 2026-04-22 23:27 | 27.16175 | -136.84620 | 41214 ft | 507 kts | 82° |
| 2026-04-22 23:28 | 27.17090 | -136.76824 | 41216 ft | 507 kts | 82° |
| 2026-04-22 23:28 | 27.18006 | -136.68982 | 41216 ft | 507 kts | 82° |
| 2026-04-22 23:29 | 27.18919 | -136.61131 | 41224 ft | 507 kts | 82° |
| 2026-04-22 23:29 | 27.19826 | -136.53285 | 41216 ft | 507 kts | 82° |
| 2026-04-22 23:30 | 27.20731 | -136.45427 | 41216 ft | 507 kts | 82° |
| 2026-04-22 23:30 | 27.21625 | -136.37623 | 41219 ft | 507 kts | 82° |
| 2026-04-22 23:31 | 27.22520 | -136.29766 | 41219 ft | 507 kts | 83° |
| 2026-04-22 23:31 | 27.23412 | -136.21900 | 41219 ft | 508 kts | 83° |
| 2026-04-22 23:32 | 27.24300 | -136.14029 | 41216 ft | 508 kts | 83° |
| 2026-04-22 23:32 | 27.25177 | -136.06210 | 41219 ft | 508 kts | 83° |
| 2026-04-22 23:33 | 27.26057 | -135.98332 | 41222 ft | 508 kts | 83° |
| 2026-04-22 23:33 | 27.26935 | -135.90448 | 41223 ft | 509 kts | 83° |
| 2026-04-22 23:34 | 27.27816 | -135.82545 | 41219 ft | 510 kts | 83° |
| 2026-04-22 23:34 | 27.28676 | -135.74681 | 41223 ft | 510 kts | 84° |
| 2026-04-22 23:35 | 27.29540 | -135.66753 | 41222 ft | 511 kts | 84° |
| 2026-04-22 23:35 | 27.30403 | -135.58817 | 41222 ft | 511 kts | 84° |
| 2026-04-22 23:36 | 27.31260 | -135.50874 | 41222 ft | 513 kts | 84° |
| 2026-04-22 23:36 | 27.32110 | -135.42959 | 41221 ft | 514 kts | 84° |
| 2026-04-22 23:37 | 27.32965 | -135.34977 | 41221 ft | 515 kts | 85° |
| 2026-04-22 23:37 | 27.33818 | -135.26956 | 41222 ft | 517 kts | 85° |
| 2026-04-22 23:38 | 27.34668 | -135.18931 | 41217 ft | 517 kts | 85° |
| 2026-04-22 23:38 | 27.35514 | -135.10942 | 41225 ft | 519 kts | 85° |
| 2026-04-22 23:39 | 27.36357 | -135.02867 | 41227 ft | 520 kts | 86° |
| 2026-04-22 23:39 | 27.37195 | -134.94790 | 41226 ft | 521 kts | 86° |
| 2026-04-22 23:40 | 27.38034 | -134.86667 | 41227 ft | 523 kts | 86° |
| 2026-04-22 23:40 | 27.38866 | -134.78584 | 41227 ft | 524 kts | 86° |
| 2026-04-22 23:41 | 27.39699 | -134.70448 | 41227 ft | 523 kts | 86° |
| 2026-04-22 23:41 | 27.40527 | -134.62313 | 41227 ft | 523 kts | 86° |
| 2026-04-22 23:42 | 27.41350 | -134.54168 | 41228 ft | 524 kts | 87° |
| 2026-04-22 23:42 | 27.42170 | -134.46003 | 41224 ft | 525 kts | 87° |
| 2026-04-22 23:43 | 27.42981 | -134.37892 | 41225 ft | 526 kts | 88° |
| 2026-04-22 23:43 | 27.43794 | -134.29698 | 41224 ft | 527 kts | 88° |
| 2026-04-22 23:44 | 27.44604 | -134.21497 | 41219 ft | 527 kts | 88° |
| 2026-04-22 23:44 | 27.45411 | -134.13277 | 41224 ft | 529 kts | 88° |
| 2026-04-22 23:45 | 27.46213 | -134.05049 | 41227 ft | 529 kts | 88° |
| 2026-04-22 23:45 | 27.47007 | -133.96865 | 41223 ft | 530 kts | 88° |
| 2026-04-22 23:46 | 27.47801 | -133.88616 | 41224 ft | 530 kts | 88° |
| 2026-04-22 23:46 | 27.48592 | -133.80361 | 41223 ft | 530 kts | 89° |
| 2026-04-22 23:47 | 27.49377 | -133.72096 | 41223 ft | 531 kts | 89° |
| 2026-04-22 23:47 | 27.50154 | -133.63873 | 41225 ft | 532 kts | 89° |
| 2026-04-22 23:48 | 27.50934 | -133.55577 | 41221 ft | 534 kts | 89° |
| 2026-04-22 23:48 | 27.51710 | -133.47247 | 41226 ft | 535 kts | 89° |
| 2026-04-22 23:49 | 27.52484 | -133.38905 | 41228 ft | 535 kts | 90° |
| 2026-04-22 23:49 | 27.53253 | -133.30550 | 41224 ft | 537 kts | 90° |
| 2026-04-22 23:50 | 27.54013 | -133.22241 | 41219 ft | 537 kts | 90° |
| 2026-04-22 23:50 | 27.54775 | -133.13856 | 41226 ft | 539 kts | 90° |
| 2026-04-22 23:51 | 27.55533 | -133.05447 | 41219 ft | 540 kts | 90° |
| 2026-04-22 23:51 | 27.56287 | -132.97039 | 41220 ft | 540 kts | 91° |
| 2026-04-22 23:52 | 27.57033 | -132.88662 | 41223 ft | 541 kts | 91° |
| 2026-04-22 23:52 | 27.57779 | -132.80225 | 41228 ft | 541 kts | 91° |
| 2026-04-22 23:53 | 27.58520 | -132.71789 | 41224 ft | 541 kts | 91° |
| 2026-04-22 23:53 | 27.59255 | -132.63353 | 41230 ft | 541 kts | 91° |
| 2026-04-22 23:54 | 27.59981 | -132.54964 | 41231 ft | 542 kts | 91° |
| 2026-04-22 23:54 | 27.60707 | -132.46496 | 41227 ft | 543 kts | 91° |
| 2026-04-22 23:55 | 27.61432 | -132.38013 | 41228 ft | 544 kts | 91° |
| 2026-04-22 23:55 | 27.62151 | -132.29517 | 41221 ft | 545 kts | 91° |
| 2026-04-22 23:56 | 27.62862 | -132.21067 | 41224 ft | 545 kts | 91° |
| 2026-04-22 23:56 | 27.63573 | -132.12555 | 41226 ft | 546 kts | 92° |
| 2026-04-22 23:57 | 27.64278 | -132.04034 | 41228 ft | 546 kts | 92° |
| 2026-04-22 23:57 | 27.64979 | -131.95509 | 41226 ft | 546 kts | 92° |
| 2026-04-22 23:58 | 27.65675 | -131.86978 | 41224 ft | 546 kts | 92° |
| 2026-04-22 23:58 | 27.66362 | -131.78506 | 41224 ft | 546 kts | 92° |
| 2026-04-22 23:59 | 27.67047 | -131.69970 | 41224 ft | 547 kts | 92° |
| 2026-04-22 23:59 | 27.67729 | -131.61412 | 41226 ft | 547 kts | 92° |
| 2026-04-23 00:00 | 27.68629 | -131.50023 | 41228 ft | 548 kts | 92° |
| 2026-04-23 00:01 | 27.69408 | -131.40061 | 41220 ft | 549 kts | 92° |
| 2026-04-23 00:01 | 27.70073 | -131.31484 | 41227 ft | 549 kts | 92° |
| 2026-04-23 00:02 | 27.70733 | -131.22904 | 41224 ft | 549 kts | 92° |
| 2026-04-23 00:02 | 27.71389 | -131.14314 | 41231 ft | 549 kts | 92° |
| 2026-04-23 00:03 | 27.72039 | -131.05725 | 41230 ft | 550 kts | 91° |
| 2026-04-23 00:03 | 27.72679 | -130.97186 | 41230 ft | 550 kts | 92° |
| 2026-04-23 00:04 | 27.73319 | -130.88583 | 41227 ft | 550 kts | 91° |
| 2026-04-23 00:04 | 27.73955 | -130.79963 | 41226 ft | 551 kts | 91° |
| 2026-04-23 00:05 | 27.74583 | -130.71384 | 41227 ft | 552 kts | 92° |
| 2026-04-23 00:05 | 27.75209 | -130.62759 | 41208 ft | 552 kts | 92° |
| 2026-04-23 00:06 | 27.75830 | -130.54122 | 41229 ft | 552 kts | 92° |
| 2026-04-23 00:06 | 27.76446 | -130.45488 | 41225 ft | 551 kts | 92° |
| 2026-04-23 00:07 | 27.76953 | -130.38315 | 41230 ft | 552 kts | 92° |
| 2026-04-23 00:07 | 27.77656 | -130.28282 | 41230 ft | 552 kts | 92° |
| 2026-04-23 00:08 | 27.78255 | -130.19642 | 41231 ft | 552 kts | 92° |
| 2026-04-23 00:08 | 27.78750 | -130.12456 | 41229 ft | 552 kts | 92° |
| 2026-04-23 00:09 | 27.79435 | -130.02405 | 41235 ft | 552 kts | 92° |
| 2026-04-23 00:09 | 27.80019 | -129.93747 | 41231 ft | 553 kts | 92° |
| 2026-04-23 00:10 | 27.80502 | -129.86535 | 41226 ft | 554 kts | 92° |
| 2026-04-23 00:10 | 27.81077 | -129.77865 | 41224 ft | 554 kts | 91° |
| 2026-04-23 00:11 | 27.81740 | -129.67767 | 41227 ft | 555 kts | 91° |
| 2026-04-23 00:11 | 27.82305 | -129.59079 | 41227 ft | 555 kts | 91° |
| 2026-04-23 00:12 | 27.82865 | -129.50370 | 41231 ft | 556 kts | 91° |
| 2026-04-23 00:12 | 27.83420 | -129.41660 | 41230 ft | 557 kts | 91° |
| 2026-04-23 00:13 | 27.83878 | -129.34413 | 41223 ft | 557 kts | 92° |
| 2026-04-23 00:13 | 27.84512 | -129.24268 | 41229 ft | 557 kts | 92° |
| 2026-04-23 00:14 | 27.84961 | -129.17013 | 41224 ft | 557 kts | 92° |
| 2026-04-23 00:14 | 27.85497 | -129.08278 | 41228 ft | 557 kts | 92° |
| 2026-04-23 00:15 | 27.86026 | -128.99539 | 41231 ft | 558 kts | 92° |
| 2026-04-23 00:15 | 27.86552 | -128.90793 | 41230 ft | 558 kts | 92° |
| 2026-04-23 00:16 | 27.87067 | -128.82110 | 41232 ft | 558 kts | 92° |
| 2026-04-23 00:16 | 27.87581 | -128.73357 | 41230 ft | 559 kts | 92° |
| 2026-04-23 00:17 | 27.88090 | -128.64595 | 41228 ft | 559 kts | 92° |
| 2026-04-23 00:17 | 27.88594 | -128.55826 | 41227 ft | 560 kts | 92° |
| 2026-04-23 00:18 | 27.89094 | -128.47040 | 41222 ft | 560 kts | 92° |
| 2026-04-23 00:18 | 27.89584 | -128.38314 | 41225 ft | 560 kts | 92° |
| 2026-04-23 00:19 | 27.90072 | -128.29534 | 41226 ft | 560 kts | 92° |
| 2026-04-23 00:19 | 27.90555 | -128.20757 | 41227 ft | 560 kts | 92° |
| 2026-04-23 00:20 | 27.91032 | -128.11966 | 41208 ft | 560 kts | 92° |
| 2026-04-23 00:20 | 27.91971 | -128.03240 | 41229 ft | 570 kts | 78° |
| 2026-04-23 00:20 | 27.93344 | -127.99022 | 41228 ft | 574 kts | 65° |
| 2026-04-23 00:21 | 27.96247 | -127.93961 | 41227 ft | 575 kts | 51° |
| 2026-04-23 00:21 | 28.00485 | -127.88156 | 41228 ft | 576 kts | 47° |
| 2026-04-23 00:22 | 28.05768 | -127.81331 | 41228 ft | 577 kts | 47° |
| 2026-04-23 00:22 | 28.11015 | -127.74532 | 41227 ft | 577 kts | 47° |
| 2026-04-23 00:23 | 28.16256 | -127.67641 | 41229 ft | 577 kts | 48° |
| 2026-04-23 00:23 | 28.21478 | -127.60725 | 41230 ft | 577 kts | 48° |
| 2026-04-23 00:24 | 28.26697 | -127.53799 | 41227 ft | 577 kts | 48° |
| 2026-04-23 00:24 | 28.31875 | -127.46921 | 41225 ft | 577 kts | 48° |
| 2026-04-23 00:25 | 28.37089 | -127.39985 | 41232 ft | 577 kts | 48° |
| 2026-04-23 00:25 | 28.42303 | -127.33040 | 41233 ft | 577 kts | 48° |
| 2026-04-23 00:26 | 28.47512 | -127.26089 | 41234 ft | 578 kts | 48° |
| 2026-04-23 00:26 | 28.52678 | -127.19183 | 41232 ft | 578 kts | 48° |
| 2026-04-23 00:27 | 28.57882 | -127.12216 | 41233 ft | 578 kts | 48° |
| 2026-04-23 00:27 | 28.63083 | -127.05241 | 41233 ft | 578 kts | 48° |
| 2026-04-23 00:28 | 28.68278 | -126.98261 | 41237 ft | 578 kts | 48° |
| 2026-04-23 00:28 | 28.73437 | -126.91319 | 41233 ft | 578 kts | 48° |
| 2026-04-23 00:29 | 28.78627 | -126.84324 | 41237 ft | 578 kts | 48° |
| 2026-04-23 00:29 | 28.83815 | -126.77319 | 41236 ft | 578 kts | 48° |
| 2026-04-23 00:30 | 28.89002 | -126.70303 | 41239 ft | 578 kts | 48° |
| 2026-04-23 00:30 | 28.94156 | -126.63321 | 41238 ft | 579 kts | 48° |
| 2026-04-23 00:31 | 28.99336 | -126.56291 | 41239 ft | 579 kts | 48° |
| 2026-04-23 00:31 | 29.04517 | -126.49248 | 41235 ft | 579 kts | 48° |
| 2026-04-23 00:32 | 29.09693 | -126.42199 | 41239 ft | 579 kts | 48° |
| 2026-04-23 00:32 | 29.14825 | -126.35198 | 41241 ft | 578 kts | 48° |
| 2026-04-23 00:33 | 29.19991 | -126.28139 | 41239 ft | 578 kts | 48° |
| 2026-04-23 00:33 | 29.25159 | -126.21066 | 41241 ft | 579 kts | 48° |
| 2026-04-23 00:34 | 29.30323 | -126.13986 | 41242 ft | 579 kts | 48° |
| 2026-04-23 00:34 | 29.35449 | -126.06945 | 41241 ft | 579 kts | 48° |
| 2026-04-23 00:35 | 29.40605 | -125.99851 | 41246 ft | 579 kts | 48° |
| 2026-04-23 00:35 | 29.45761 | -125.92743 | 41245 ft | 579 kts | 48° |
| 2026-04-23 00:36 | 29.50911 | -125.85632 | 41242 ft | 579 kts | 48° |
| 2026-04-23 00:36 | 29.56027 | -125.78558 | 41243 ft | 579 kts | 48° |
| 2026-04-23 00:37 | 29.61167 | -125.71436 | 41248 ft | 579 kts | 48° |
| 2026-04-23 00:37 | 29.66310 | -125.64297 | 41250 ft | 579 kts | 48° |
| 2026-04-23 00:38 | 29.71444 | -125.57158 | 41253 ft | 579 kts | 48° |
| 2026-04-23 00:38 | 29.76540 | -125.50060 | 41256 ft | 579 kts | 48° |
| 2026-04-23 00:39 | 29.81662 | -125.42913 | 41254 ft | 579 kts | 47° |
| 2026-04-23 00:39 | 29.86782 | -125.35756 | 41253 ft | 579 kts | 48° |
| 2026-04-23 00:40 | 29.91899 | -125.28589 | 41253 ft | 579 kts | 48° |
| 2026-04-23 00:40 | 29.97011 | -125.21419 | 41254 ft | 579 kts | 47° |
| 2026-04-23 00:41 | 30.02082 | -125.14292 | 41254 ft | 578 kts | 47° |
| 2026-04-23 00:41 | 30.07182 | -125.07111 | 41258 ft | 578 kts | 47° |
| 2026-04-23 00:42 | 30.12278 | -124.99924 | 41258 ft | 578 kts | 47° |
| 2026-04-23 00:42 | 30.17333 | -124.92782 | 41260 ft | 578 kts | 47° |
| 2026-04-23 00:43 | 30.22419 | -124.85583 | 41259 ft | 578 kts | 47° |
| 2026-04-23 00:43 | 30.27504 | -124.78372 | 41260 ft | 578 kts | 47° |
| 2026-04-23 00:44 | 30.32582 | -124.71159 | 41270 ft | 578 kts | 47° |
| 2026-04-23 00:44 | 30.37658 | -124.63934 | 41263 ft | 579 kts | 47° |
| 2026-04-23 00:45 | 30.42701 | -124.56743 | 41260 ft | 579 kts | 47° |
| 2026-04-23 00:45 | 30.47772 | -124.49500 | 41256 ft | 578 kts | 47° |
| 2026-04-23 00:46 | 30.52836 | -124.42254 | 41267 ft | 578 kts | 47° |
| 2026-04-23 00:46 | 30.57890 | -124.35008 | 41264 ft | 578 kts | 47° |
| 2026-04-23 00:47 | 30.62909 | -124.27799 | 41267 ft | 578 kts | 47° |
| 2026-04-23 00:47 | 30.67951 | -124.20544 | 41271 ft | 578 kts | 47° |
| 2026-04-23 00:48 | 30.72994 | -124.13274 | 41268 ft | 578 kts | 47° |
| 2026-04-23 00:48 | 30.78034 | -124.05997 | 41267 ft | 578 kts | 47° |
| 2026-04-23 00:49 | 30.83036 | -123.98759 | 41265 ft | 578 kts | 47° |
| 2026-04-23 00:49 | 30.88063 | -123.91470 | 41264 ft | 577 kts | 46° |
| 2026-04-23 00:50 | 30.92853 | -123.84513 | 41265 ft | 576 kts | 46° |
| 2026-04-23 00:50 | 30.97798 | -123.77319 | 41265 ft | 576 kts | 46° |
| 2026-04-23 00:51 | 31.02845 | -123.69964 | 41260 ft | 576 kts | 46° |
| 2026-04-23 00:51 | 31.07846 | -123.62661 | 41259 ft | 576 kts | 46° |
| 2026-04-23 00:52 | 31.12541 | -123.55187 | 41287 ft | 582 kts | 61° |
| 2026-04-23 00:52 | 31.14022 | -123.50773 | 41269 ft | 584 kts | 74° |
| 2026-04-23 00:52 | 31.15050 | -123.46188 | 41261 ft | 585 kts | 77° |
| 2026-04-23 00:53 | 31.16918 | -123.36923 | 41258 ft | 586 kts | 77° |
| 2026-04-23 00:53 | 31.18796 | -123.27655 | 41257 ft | 586 kts | 77° |
| 2026-04-23 00:54 | 31.20668 | -123.18449 | 41255 ft | 586 kts | 77° |
| 2026-04-23 00:54 | 31.22549 | -123.09179 | 41253 ft | 586 kts | 77° |
| 2026-04-23 00:55 | 31.24424 | -122.99911 | 41252 ft | 586 kts | 77° |
| 2026-04-23 00:55 | 31.26292 | -122.90638 | 41253 ft | 586 kts | 77° |
| 2026-04-23 00:56 | 31.28154 | -122.81363 | 41249 ft | 586 kts | 77° |
| 2026-04-23 00:56 | 31.29994 | -122.72156 | 41247 ft | 585 kts | 77° |
| 2026-04-23 00:57 | 31.31838 | -122.62898 | 41246 ft | 585 kts | 77° |
| 2026-04-23 00:57 | 31.33675 | -122.53631 | 41243 ft | 584 kts | 77° |
| 2026-04-23 00:58 | 31.35505 | -122.44369 | 41242 ft | 584 kts | 77° |
| 2026-04-23 00:58 | 31.37312 | -122.35185 | 41235 ft | 584 kts | 77° |
| 2026-04-23 00:59 | 31.39126 | -122.25925 | 41238 ft | 583 kts | 77° |
| 2026-04-23 00:59 | 31.40931 | -122.16677 | 41236 ft | 583 kts | 77° |
| 2026-04-23 01:00 | 31.42729 | -122.07426 | 41236 ft | 583 kts | 77° |
| 2026-04-23 01:00 | 31.44519 | -121.98180 | 41239 ft | 583 kts | 77° |
| 2026-04-23 01:01 | 31.46292 | -121.88983 | 41234 ft | 582 kts | 77° |
| 2026-04-23 01:01 | 31.48069 | -121.79724 | 41232 ft | 582 kts | 77° |
| 2026-04-23 01:02 | 31.49837 | -121.70478 | 41227 ft | 582 kts | 77° |
| 2026-04-23 01:02 | 31.51599 | -121.61224 | 41225 ft | 582 kts | 77° |
| 2026-04-23 01:03 | 31.53354 | -121.51968 | 41227 ft | 582 kts | 77° |
| 2026-04-23 01:03 | 31.55092 | -121.42764 | 41224 ft | 582 kts | 78° |
| 2026-04-23 01:04 | 31.57614 | -121.33784 | 41226 ft | 579 kts | 66° |
| 2026-04-23 01:04 | 31.62191 | -121.20656 | 41215 ft | 580 kts | 66° |
| 2026-04-23 01:05 | 31.65223 | -121.11901 | 41219 ft | 579 kts | 66° |
| 2026-04-23 01:05 | 31.68247 | -121.03136 | 41211 ft | 579 kts | 66° |
| 2026-04-23 01:06 | 31.71259 | -120.94380 | 41210 ft | 579 kts | 66° |
| 2026-04-23 01:06 | 31.74243 | -120.85681 | 41208 ft | 578 kts | 66° |
| 2026-04-23 01:07 | 31.77240 | -120.76919 | 41208 ft | 578 kts | 66° |
| 2026-04-23 01:07 | 31.80232 | -120.68150 | 41203 ft | 578 kts | 66° |
| 2026-04-23 01:08 | 31.83197 | -120.59435 | 41203 ft | 578 kts | 66° |
| 2026-04-23 01:08 | 31.86174 | -120.50662 | 41200 ft | 578 kts | 66° |
| 2026-04-23 01:09 | 31.89149 | -120.41875 | 41200 ft | 578 kts | 66° |
| 2026-04-23 01:09 | 31.92118 | -120.33078 | 41197 ft | 577 kts | 66° |
| 2026-04-23 01:10 | 31.95889 | -120.24872 | 41201 ft | 564 kts | 45° |
| 2026-04-23 01:10 | 32.01103 | -120.18125 | 41176 ft | 560 kts | 40° |
| 2026-04-23 01:11 | 32.03769 | -120.14784 | 40964 ft | 559 kts | 40° |
| 2026-04-23 01:11 | 32.06419 | -120.11451 | 40725 ft | 557 kts | 40° |
| 2026-04-23 01:11 | 32.09061 | -120.08120 | 40174 ft | 556 kts | 40° |
| 2026-04-23 01:11 | 32.11709 | -120.04776 | 39420 ft | 559 kts | 40° |
| 2026-04-23 01:12 | 32.14369 | -120.01414 | 38745 ft | 560 kts | 40° |
| 2026-04-23 01:12 | 32.17018 | -119.98057 | 38064 ft | 558 kts | 40° |
| 2026-04-23 01:12 | 32.19641 | -119.94729 | 37432 ft | 557 kts | 40° |
| 2026-04-23 01:12 | 32.22243 | -119.91425 | 36789 ft | 555 kts | 40° |
| 2026-04-23 01:13 | 32.24866 | -119.88093 | 36150 ft | 555 kts | 39° |
| 2026-04-23 01:13 | 32.27494 | -119.84750 | 35486 ft | 554 kts | 39° |
| 2026-04-23 01:13 | 32.30115 | -119.81415 | 34880 ft | 553 kts | 39° |
| 2026-04-23 01:13 | 32.32718 | -119.78096 | 34385 ft | 548 kts | 39° |
| 2026-04-23 01:14 | 32.35303 | -119.74797 | 33851 ft | 544 kts | 39° |
| 2026-04-23 01:14 | 32.37864 | -119.71527 | 33340 ft | 539 kts | 39° |
| 2026-04-23 01:14 | 32.40401 | -119.68284 | 32842 ft | 534 kts | 39° |
| 2026-04-23 01:14 | 32.42916 | -119.65068 | 32350 ft | 530 kts | 39° |
| 2026-04-23 01:15 | 32.45371 | -119.61927 | 31872 ft | 525 kts | 39° |
| 2026-04-23 01:15 | 32.47839 | -119.58767 | 31379 ft | 521 kts | 39° |
| 2026-04-23 01:15 | 32.50290 | -119.55628 | 30899 ft | 517 kts | 39° |
| 2026-04-23 01:15 | 32.52721 | -119.52508 | 30412 ft | 513 kts | 40° |
| 2026-04-23 01:16 | 32.55130 | -119.49414 | 29902 ft | 509 kts | 40° |
| 2026-04-23 01:16 | 32.57504 | -119.46358 | 29395 ft | 498 kts | 40° |
| 2026-04-23 01:16 | 32.59833 | -119.43359 | 28928 ft | 492 kts | 40° |
| 2026-04-23 01:16 | 32.62144 | -119.40385 | 28460 ft | 487 kts | 40° |
| 2026-04-23 01:17 | 32.64397 | -119.37484 | 28009 ft | 482 kts | 40° |
| 2026-04-23 01:17 | 32.66654 | -119.34573 | 27552 ft | 478 kts | 41° |
| 2026-04-23 01:17 | 32.68895 | -119.31682 | 27081 ft | 473 kts | 41° |
| 2026-04-23 01:17 | 32.71114 | -119.28817 | 26622 ft | 469 kts | 41° |
| 2026-04-23 01:18 | 32.73308 | -119.25982 | 26180 ft | 465 kts | 41° |
| 2026-04-23 01:18 | 32.75489 | -119.23161 | 25708 ft | 461 kts | 41° |
| 2026-04-23 01:18 | 32.77650 | -119.20364 | 25264 ft | 458 kts | 42° |
| 2026-04-23 01:18 | 32.79799 | -119.17581 | 24805 ft | 455 kts | 42° |
| 2026-04-23 01:19 | 32.81928 | -119.14821 | 24340 ft | 451 kts | 42° |
| 2026-04-23 01:19 | 32.84009 | -119.12121 | 23899 ft | 448 kts | 43° |
| 2026-04-23 01:19 | 32.86111 | -119.09392 | 23384 ft | 445 kts | 43° |
| 2026-04-23 01:19 | 32.88186 | -119.06694 | 22916 ft | 440 kts | 43° |
| 2026-04-23 01:20 | 32.90238 | -119.04025 | 22475 ft | 434 kts | 43° |
| 2026-04-23 01:20 | 32.92263 | -119.01389 | 22014 ft | 429 kts | 43° |
| 2026-04-23 01:20 | 32.94270 | -118.98774 | 21565 ft | 425 kts | 43° |
| 2026-04-23 01:20 | 32.96258 | -118.96184 | 21128 ft | 422 kts | 43° |
| 2026-04-23 01:21 | 32.98226 | -118.93617 | 20680 ft | 418 kts | 43° |
| 2026-04-23 01:21 | 33.00180 | -118.91067 | 20239 ft | 415 kts | 43° |
| 2026-04-23 01:21 | 33.02121 | -118.88533 | 19795 ft | 412 kts | 43° |
| 2026-04-23 01:21 | 33.04045 | -118.86018 | 19374 ft | 409 kts | 43° |
| 2026-04-23 01:22 | 33.05958 | -118.83517 | 18907 ft | 406 kts | 43° |
| 2026-04-23 01:22 | 33.07823 | -118.81075 | 18494 ft | 403 kts | 43° |
| 2026-04-23 01:22 | 33.09705 | -118.78611 | 18029 ft | 399 kts | 43° |
| 2026-04-23 01:22 | 33.11565 | -118.76171 | 17582 ft | 395 kts | 43° |
| 2026-04-23 01:23 | 33.13399 | -118.73765 | 17152 ft | 391 kts | 43° |
| 2026-04-23 01:23 | 33.15210 | -118.71387 | 16796 ft | 384 kts | 43° |
| 2026-04-23 01:23 | 33.17001 | -118.69035 | 16375 ft | 381 kts | 43° |
| 2026-04-23 01:23 | 33.18780 | -118.66700 | 15963 ft | 378 kts | 42° |
| 2026-04-23 01:24 | 33.20510 | -118.64341 | 15878 ft | 380 kts | 44° |
| 2026-04-23 01:24 | 33.22216 | -118.61925 | 15802 ft | 381 kts | 44° |
| 2026-04-23 01:24 | 33.23921 | -118.59505 | 15713 ft | 381 kts | 44° |
| 2026-04-23 01:24 | 33.25628 | -118.57091 | 15625 ft | 380 kts | 44° |
| 2026-04-23 01:25 | 33.27312 | -118.54715 | 15517 ft | 380 kts | 44° |
| 2026-04-23 01:25 | 33.29020 | -118.52308 | 15406 ft | 380 kts | 44° |
| 2026-04-23 01:25 | 33.30725 | -118.49906 | 15315 ft | 379 kts | 44° |
| 2026-04-23 01:25 | 33.32414 | -118.47493 | 15225 ft | 380 kts | 46° |
| 2026-04-23 01:26 | 33.33733 | -118.44728 | 15117 ft | 389 kts | 67° |
| 2026-04-23 01:26 | 33.34159 | -118.41520 | 15017 ft | 394 kts | 89° |
| 2026-04-23 01:26 | 33.34014 | -118.38245 | 14915 ft | 395 kts | 93° |
| 2026-04-23 01:26 | 33.33789 | -118.34977 | 14811 ft | 395 kts | 93° |
| 2026-04-23 01:27 | 33.33575 | -118.31752 | 14686 ft | 395 kts | 93° |
| 2026-04-23 01:27 | 33.33375 | -118.28474 | 14481 ft | 396 kts | 92° |
| 2026-04-23 01:27 | 33.33187 | -118.25197 | 14239 ft | 395 kts | 92° |
| 2026-04-23 01:27 | 33.33000 | -118.21935 | 14027 ft | 392 kts | 92° |
| 2026-04-23 01:28 | 33.32810 | -118.18693 | 13782 ft | 390 kts | 92° |
| 2026-04-23 01:28 | 33.32620 | -118.15464 | 13532 ft | 388 kts | 92° |
| 2026-04-23 01:28 | 33.32521 | -118.12257 | 13258 ft | 384 kts | 84° |
| 2026-04-23 01:28 | 33.33159 | -118.09233 | 12998 ft | 371 kts | 59° |
| 2026-04-23 01:29 | 33.34607 | -118.06809 | 12766 ft | 359 kts | 41° |
| 2026-04-23 01:29 | 33.36339 | -118.04675 | 12503 ft | 358 kts | 40° |
| 2026-04-23 01:29 | 33.38094 | -118.02564 | 12254 ft | 357 kts | 40° |
| 2026-04-23 01:29 | 33.40000 | -118.00724 | 12027 ft | 347 kts | 24° |
| 2026-04-23 01:30 | 33.42227 | -117.99831 | 11673 ft | 333 kts | 1° |
| 2026-04-23 01:30 | 33.44513 | -117.99785 | 11306 ft | 327 kts | 352° |
| 2026-04-23 01:30 | 33.46779 | -117.99914 | 10939 ft | 326 kts | 352° |
| 2026-04-23 01:30 | 33.49012 | -118.00043 | 10581 ft | 325 kts | 352° |
| 2026-04-23 01:31 | 33.51227 | -118.00159 | 10379 ft | 313 kts | 353° |
| 2026-04-23 01:31 | 33.53363 | -118.00264 | 10154 ft | 300 kts | 353° |
| 2026-04-23 01:31 | 33.55413 | -118.00365 | 9653 ft | 290 kts | 353° |
| 2026-04-23 01:31 | 33.57389 | -118.00462 | 9216 ft | 283 kts | 353° |
| 2026-04-23 01:32 | 33.59362 | -118.00566 | 8873 ft | 283 kts | 353° |
| 2026-04-23 01:32 | 33.61318 | -118.00659 | 8522 ft | 280 kts | 354° |
| 2026-04-23 01:32 | 33.63255 | -118.00743 | 8198 ft | 279 kts | 354° |
| 2026-04-23 01:32 | 33.65174 | -118.00978 | 7923 ft | 274 kts | 345° |
| 2026-04-23 01:33 | 33.67020 | -118.01559 | 7790 ft | 275 kts | 341° |
| 2026-04-23 01:33 | 33.68850 | -118.02195 | 7680 ft | 274 kts | 341° |
| 2026-04-23 01:33 | 33.70654 | -118.02822 | 7531 ft | 273 kts | 341° |
| 2026-04-23 01:33 | 33.72417 | -118.03429 | 7419 ft | 252 kts | 341° |
| 2026-04-23 01:34 | 33.74026 | -118.03979 | 7319 ft | 230 kts | 341° |
| 2026-04-23 01:34 | 33.75547 | -118.04505 | 7169 ft | 226 kts | 341° |
| 2026-04-23 01:34 | 33.77059 | -118.05031 | 7044 ft | 226 kts | 341° |
| 2026-04-23 01:34 | 33.78553 | -118.05596 | 6852 ft | 225 kts | 338° |
| 2026-04-23 01:35 | 33.80015 | -118.06270 | 6617 ft | 225 kts | 336° |
| 2026-04-23 01:35 | 33.81460 | -118.06965 | 6339 ft | 222 kts | 335° |
| 2026-04-23 01:35 | 33.82885 | -118.07652 | 6067 ft | 219 kts | 336° |
| 2026-04-23 01:35 | 33.84300 | -118.08332 | 5824 ft | 220 kts | 336° |
| 2026-04-23 01:36 | 33.85725 | -118.09018 | 5561 ft | 221 kts | 337° |
| 2026-04-23 01:36 | 33.87133 | -118.09698 | 5300 ft | 222 kts | 337° |
| 2026-04-23 01:36 | 33.88561 | -118.10373 | 5065 ft | 222 kts | 339° |
| 2026-04-23 01:36 | 33.90076 | -118.10764 | 4995 ft | 222 kts | 354° |
| 2026-04-23 01:37 | 33.91610 | -118.10880 | 4986 ft | 220 kts | 356° |
| 2026-04-23 01:37 | 33.93067 | -118.11281 | 4983 ft | 208 kts | 333° |
| 2026-04-23 01:37 | 33.94230 | -118.12186 | 5007 ft | 190 kts | 322° |
| 2026-04-23 01:37 | 33.95199 | -118.13137 | 5029 ft | 170 kts | 316° |
| 2026-04-23 01:38 | 33.95806 | -118.14260 | 5016 ft | 153 kts | 291° |
| 2026-04-23 01:38 | 33.95979 | -118.15452 | 4998 ft | 140 kts | 272° |
| 2026-04-23 01:38 | 33.95920 | -118.16619 | 4885 ft | 142 kts | 265° |
| 2026-04-23 01:38 | 33.95814 | -118.17795 | 4542 ft | 143 kts | 267° |
| 2026-04-23 01:39 | 33.95704 | -118.18986 | 4215 ft | 143 kts | 264° |
| 2026-04-23 01:39 | 33.95584 | -118.20174 | 3874 ft | 144 kts | 264° |
| 2026-04-23 01:39 | 33.95465 | -118.21373 | 3549 ft | 144 kts | 264° |
| 2026-04-23 01:39 | 33.95347 | -118.22566 | 3232 ft | 142 kts | 265° |
| 2026-04-23 01:40 | 33.95232 | -118.23730 | 2917 ft | 139 kts | 264° |
| 2026-04-23 01:40 | 33.95116 | -118.24905 | 2455 ft | 144 kts | 264° |
| 2026-04-23 01:40 | 33.94987 | -118.26140 | 2004 ft | 149 kts | 263° |
| 2026-04-23 01:40 | 33.94865 | -118.27318 | 1856 ft | 132 kts | 263° |
| 2026-04-23 01:41 | 33.94756 | -118.28369 | 1739 ft | 123 kts | 263° |
| 2026-04-23 01:41 | 33.94651 | -118.29388 | 1584 ft | 124 kts | 263° |
| 2026-04-23 01:41 | 33.94546 | -118.30410 | 1416 ft | 125 kts | 264° |
| 2026-04-23 01:41 | 33.94443 | -118.31444 | 1269 ft | 123 kts | 262° |
| 2026-04-23 01:42 | 33.94325 | -118.32466 | 1085 ft | 123 kts | 263° |
| 2026-04-23 01:42 | 33.94208 | -118.33478 | 929 ft | 122 kts | 265° |
| 2026-04-23 01:42 | 33.94113 | -118.34479 | 749 ft | 119 kts | 264° |
| 2026-04-23 01:42 | 33.94025 | -118.35469 | 594 ft | 117 kts | 266° |
| 2026-04-23 01:43 | 33.93918 | -118.36434 | 434 ft | 115 kts | 266° |
| 2026-04-23 01:43 | 33.93819 | -118.37401 | 292 ft | 117 kts | 264° |
| 2026-04-23 01:43 | 33.93730 | -118.38379 | 135 ft | 118 kts | 260° |
| 2026-04-23 01:43 | 33.93631 | -118.39297 | 99 ft | 92 kts | 263° |
| 2026-04-23 01:44 | 33.93583 | -118.39782 | 102 ft | 44 kts | 263° |
| 2026-04-23 01:44 | 33.93564 | -118.40112 | 105 ft | 25 kts | 276° |
| 2026-04-23 01:44 | 33.93601 | -118.40296 | 104 ft | 23 kts | 288° |
| 2026-04-23 01:44 | 33.93624 | -118.40426 | 103 ft | 0 kts | 268° |
| 2026-04-23 01:45 | 33.93623 | -118.40453 | 102 ft | 10 kts | 266° |
| 2026-04-23 01:45 | 33.93615 | -118.40543 | 103 ft | 12 kts | 263° |
| 2026-04-23 01:45 | 33.93604 | -118.40654 | 102 ft | 15 kts | 263° |
| 2026-04-23 01:46 | 33.93595 | -118.40785 | 103 ft | 15 kts | 273° |
| 2026-04-23 01:46 | 33.93614 | -118.40861 | 103 ft | 10 kts | 301° |
| 2026-04-23 01:46 | 33.93671 | -118.40896 | 102 ft | 11 kts | 351° |
| 2026-04-23 01:46 | 33.93750 | -118.40911 | 101 ft | 8 kts | 341° |
| 2026-04-23 01:47 | 33.93781 | -118.40974 | 101 ft | 10 kts | 275° |
| 2026-04-23 01:47 | 33.93770 | -118.41065 | 100 ft | 12 kts | 262° |
| 2026-04-23 01:47 | 33.93759 | -118.41169 | 102 ft | 12 kts | 263° |
| 2026-04-23 01:47 | 33.93783 | -118.41242 | 101 ft | 10 kts | 334° |
| 2026-04-23 01:48 | 33.93865 | -118.41260 | 102 ft | 14 kts | 353° |
| 2026-04-23 01:48 | 33.93970 | -118.41276 | 100 ft | 17 kts | 353° |
| 2026-04-23 01:48 | 33.94095 | -118.41295 | 101 ft | 20 kts | 353° |
| 2026-04-23 01:48 | 33.94234 | -118.41316 | 100 ft | 20 kts | 353° |
| 2026-04-23 01:49 | 33.94265 | -118.41320 | 100 ft | 6 kts | 353° |
| 2026-04-23 01:49 | 33.94319 | -118.41328 | 101 ft | 10 kts | 353° |
| 2026-04-23 01:49 | 33.94398 | -118.41340 | 100 ft | 13 kts | 352° |
| 2026-04-23 01:49 | 33.94500 | -118.41355 | 101 ft | 16 kts | 353° |
| 2026-04-23 01:50 | 33.94600 | -118.41370 | 101 ft | 8 kts | 353° |
| 2026-04-23 01:50 | 33.94666 | -118.41366 | 101 ft | 10 kts | 30° |
| 2026-04-23 01:50 | 33.94690 | -118.41287 | 102 ft | 12 kts | 79° |
| 2026-04-23 01:50 | 33.94717 | -118.41174 | 102 ft | 16 kts | 71° |
| 2026-04-23 01:51 | 33.94736 | -118.41031 | 100 ft | 19 kts | 83° |
| 2026-04-23 01:51 | 33.94737 | -118.40935 | 100 ft | 11 kts | 114° |
| 2026-04-23 01:51 | 33.94668 | -118.40905 | 100 ft | 12 kts | 172° |
| 2026-04-23 01:51 | 33.94584 | -118.40893 | 101 ft | 12 kts | 173° |
| 2026-04-23 01:52 | 33.94512 | -118.40888 | 102 ft | 9 kts | 195° |
| 2026-04-23 01:52 | 33.94484 | -118.40935 | 103 ft | 7 kts | 255° |
| 2026-04-23 01:52 | 33.94479 | -118.40969 | 101 ft | 3 kts | 261° |
| 2026-04-23 01:52 | 33.94476 | -118.40991 | 102 ft | 1 kts | 261° |
| 2026-04-23 01:53 | 33.94476 | -118.40994 | 102 ft | 0 kts | 261° |